<?xml version="1.0" encoding="UTF-8" standalone="no" ?>
<gpx xmlns="http://www.topografix.com/GPX/1/1" xmlns:xsi="http://www.w3.org/2001/XMLSchema-instance" xsi:schemaLocation="http://www.topografix.com/GPX/1/1 http://www.topografix.com/GPX/1/1/gpx.xsd" version="1.1" creator="VisuGPX - https://www.visugpx.com">
  <metadata>
    <name>Marche Nordique</name>
    <desc><![CDATA[Le 17/11/2012 de 8h à10h dans le bois du crusifix.]]></desc>
  </metadata>
  <trk>
    <name><![CDATA[17/11/12 08:00]]></name>
    <desc><![CDATA[]]></desc>
    <trkseg>
      <trkpt lat="47.31869" lon="4.92631">
        <ele>375</ele>
        <time>2012-11-17T07:02:57Z</time>
      </trkpt>
      <trkpt lat="47.3188" lon="4.92654">
        <ele>348</ele>
        <time>2012-11-17T07:02:58Z</time>
      </trkpt>
      <trkpt lat="47.31873" lon="4.92634">
        <ele>378</ele>
        <time>2012-11-17T07:02:59Z</time>
      </trkpt>
      <trkpt lat="47.3188" lon="4.92635">
        <ele>371</ele>
        <time>2012-11-17T07:03:00Z</time>
      </trkpt>
      <trkpt lat="47.31884" lon="4.92634">
        <ele>381</ele>
        <time>2012-11-17T07:03:01Z</time>
      </trkpt>
      <trkpt lat="47.3186" lon="4.92669">
        <ele>321</ele>
        <time>2012-11-17T07:03:03Z</time>
      </trkpt>
      <trkpt lat="47.31859" lon="4.92663">
        <ele>310</ele>
        <time>2012-11-17T07:03:21Z</time>
      </trkpt>
      <trkpt lat="47.31863" lon="4.92657">
        <ele>311</ele>
        <time>2012-11-17T07:03:41Z</time>
      </trkpt>
      <trkpt lat="47.31863" lon="4.92657">
        <ele>311</ele>
        <time>2012-11-17T07:03:41Z</time>
      </trkpt>
      <trkpt lat="47.31863" lon="4.92657">
        <ele>312</ele>
        <time>2012-11-17T07:03:42Z</time>
      </trkpt>
      <trkpt lat="47.31863" lon="4.92664">
        <ele>312</ele>
        <time>2012-11-17T07:05:35Z</time>
      </trkpt>
      <trkpt lat="47.31863" lon="4.92664">
        <ele>312</ele>
        <time>2012-11-17T07:05:35Z</time>
      </trkpt>
      <trkpt lat="47.31863" lon="4.92664">
        <ele>312</ele>
        <time>2012-11-17T07:05:37Z</time>
      </trkpt>
      <trkpt lat="47.31864" lon="4.92657">
        <ele>312</ele>
        <time>2012-11-17T07:08:43Z</time>
      </trkpt>
      <trkpt lat="47.31866" lon="4.92663">
        <ele>312</ele>
        <time>2012-11-17T07:08:51Z</time>
      </trkpt>
      <trkpt lat="47.31864" lon="4.9267">
        <ele>311</ele>
        <time>2012-11-17T07:09:06Z</time>
      </trkpt>
      <trkpt lat="47.31864" lon="4.9267">
        <ele>311</ele>
        <time>2012-11-17T07:09:06Z</time>
      </trkpt>
      <trkpt lat="47.31864" lon="4.9267">
        <ele>311</ele>
        <time>2012-11-17T07:09:08Z</time>
      </trkpt>
      <trkpt lat="47.31861" lon="4.92676">
        <ele>313</ele>
        <time>2012-11-17T07:11:07Z</time>
      </trkpt>
      <trkpt lat="47.3186" lon="4.92669">
        <ele>310</ele>
        <time>2012-11-17T07:12:43Z</time>
      </trkpt>
      <trkpt lat="47.3186" lon="4.92669">
        <ele>310</ele>
        <time>2012-11-17T07:12:43Z</time>
      </trkpt>
      <trkpt lat="47.3186" lon="4.92669">
        <ele>310</ele>
        <time>2012-11-17T07:12:49Z</time>
      </trkpt>
      <trkpt lat="47.3186" lon="4.92676">
        <ele>313</ele>
        <time>2012-11-17T07:14:36Z</time>
      </trkpt>
      <trkpt lat="47.3186" lon="4.92676">
        <ele>313</ele>
        <time>2012-11-17T07:14:36Z</time>
      </trkpt>
      <trkpt lat="47.3186" lon="4.92676">
        <ele>312</ele>
        <time>2012-11-17T07:14:39Z</time>
      </trkpt>
      <trkpt lat="47.31858" lon="4.92669">
        <ele>314</ele>
        <time>2012-11-17T07:15:24Z</time>
      </trkpt>
      <trkpt lat="47.31853" lon="4.92669">
        <ele>323</ele>
        <time>2012-11-17T07:15:42Z</time>
      </trkpt>
      <trkpt lat="47.31852" lon="4.92675">
        <ele>327</ele>
        <time>2012-11-17T07:15:48Z</time>
      </trkpt>
      <trkpt lat="47.31851" lon="4.92683">
        <ele>327</ele>
        <time>2012-11-17T07:15:53Z</time>
      </trkpt>
      <trkpt lat="47.31851" lon="4.9269">
        <ele>331</ele>
        <time>2012-11-17T07:15:58Z</time>
      </trkpt>
      <trkpt lat="47.31853" lon="4.92699">
        <ele>333</ele>
        <time>2012-11-17T07:16:05Z</time>
      </trkpt>
      <trkpt lat="47.31855" lon="4.92706">
        <ele>333</ele>
        <time>2012-11-17T07:16:08Z</time>
      </trkpt>
      <trkpt lat="47.31856" lon="4.92713">
        <ele>335</ele>
        <time>2012-11-17T07:16:12Z</time>
      </trkpt>
      <trkpt lat="47.31856" lon="4.92721">
        <ele>337</ele>
        <time>2012-11-17T07:16:16Z</time>
      </trkpt>
      <trkpt lat="47.31858" lon="4.92727">
        <ele>339</ele>
        <time>2012-11-17T07:16:19Z</time>
      </trkpt>
      <trkpt lat="47.31859" lon="4.92734">
        <ele>339</ele>
        <time>2012-11-17T07:16:22Z</time>
      </trkpt>
      <trkpt lat="47.31861" lon="4.9274">
        <ele>341</ele>
        <time>2012-11-17T07:16:25Z</time>
      </trkpt>
      <trkpt lat="47.31861" lon="4.92748">
        <ele>343</ele>
        <time>2012-11-17T07:16:29Z</time>
      </trkpt>
      <trkpt lat="47.31864" lon="4.92756">
        <ele>345</ele>
        <time>2012-11-17T07:16:32Z</time>
      </trkpt>
      <trkpt lat="47.31865" lon="4.92762">
        <ele>346</ele>
        <time>2012-11-17T07:16:36Z</time>
      </trkpt>
      <trkpt lat="47.31866" lon="4.92772">
        <ele>347</ele>
        <time>2012-11-17T07:16:42Z</time>
      </trkpt>
      <trkpt lat="47.31869" lon="4.92779">
        <ele>349</ele>
        <time>2012-11-17T07:16:46Z</time>
      </trkpt>
      <trkpt lat="47.31872" lon="4.92784">
        <ele>348</ele>
        <time>2012-11-17T07:16:50Z</time>
      </trkpt>
      <trkpt lat="47.31873" lon="4.92794">
        <ele>349</ele>
        <time>2012-11-17T07:16:54Z</time>
      </trkpt>
      <trkpt lat="47.31874" lon="4.92801">
        <ele>349</ele>
        <time>2012-11-17T07:16:58Z</time>
      </trkpt>
      <trkpt lat="47.31875" lon="4.92808">
        <ele>349</ele>
        <time>2012-11-17T07:17:00Z</time>
      </trkpt>
      <trkpt lat="47.31876" lon="4.92814">
        <ele>348</ele>
        <time>2012-11-17T07:17:03Z</time>
      </trkpt>
      <trkpt lat="47.31879" lon="4.92821">
        <ele>349</ele>
        <time>2012-11-17T07:17:07Z</time>
      </trkpt>
      <trkpt lat="47.3188" lon="4.9283">
        <ele>346</ele>
        <time>2012-11-17T07:17:17Z</time>
      </trkpt>
      <trkpt lat="47.31882" lon="4.92838">
        <ele>343</ele>
        <time>2012-11-17T07:17:23Z</time>
      </trkpt>
      <trkpt lat="47.31883" lon="4.92847">
        <ele>343</ele>
        <time>2012-11-17T07:17:28Z</time>
      </trkpt>
      <trkpt lat="47.31884" lon="4.92853">
        <ele>344</ele>
        <time>2012-11-17T07:17:30Z</time>
      </trkpt>
      <trkpt lat="47.31886" lon="4.92861">
        <ele>345</ele>
        <time>2012-11-17T07:17:32Z</time>
      </trkpt>
      <trkpt lat="47.31889" lon="4.92871">
        <ele>346</ele>
        <time>2012-11-17T07:17:35Z</time>
      </trkpt>
      <trkpt lat="47.31891" lon="4.92878">
        <ele>346</ele>
        <time>2012-11-17T07:17:38Z</time>
      </trkpt>
      <trkpt lat="47.31891" lon="4.92885">
        <ele>345</ele>
        <time>2012-11-17T07:17:47Z</time>
      </trkpt>
      <trkpt lat="47.31895" lon="4.92892">
        <ele>344</ele>
        <time>2012-11-17T07:17:51Z</time>
      </trkpt>
      <trkpt lat="47.31897" lon="4.92899">
        <ele>344</ele>
        <time>2012-11-17T07:17:53Z</time>
      </trkpt>
      <trkpt lat="47.31901" lon="4.92906">
        <ele>345</ele>
        <time>2012-11-17T07:17:56Z</time>
      </trkpt>
      <trkpt lat="47.319" lon="4.92913">
        <ele>344</ele>
        <time>2012-11-17T07:18:01Z</time>
      </trkpt>
      <trkpt lat="47.31903" lon="4.9292">
        <ele>344</ele>
        <time>2012-11-17T07:18:05Z</time>
      </trkpt>
      <trkpt lat="47.31905" lon="4.92928">
        <ele>342</ele>
        <time>2012-11-17T07:18:10Z</time>
      </trkpt>
      <trkpt lat="47.31908" lon="4.92934">
        <ele>339</ele>
        <time>2012-11-17T07:18:15Z</time>
      </trkpt>
      <trkpt lat="47.31912" lon="4.92938">
        <ele>338</ele>
        <time>2012-11-17T07:18:17Z</time>
      </trkpt>
      <trkpt lat="47.31917" lon="4.92941">
        <ele>337</ele>
        <time>2012-11-17T07:18:22Z</time>
      </trkpt>
      <trkpt lat="47.31922" lon="4.92944">
        <ele>338</ele>
        <time>2012-11-17T07:18:25Z</time>
      </trkpt>
      <trkpt lat="47.31927" lon="4.92948">
        <ele>337</ele>
        <time>2012-11-17T07:18:29Z</time>
      </trkpt>
      <trkpt lat="47.31932" lon="4.92952">
        <ele>338</ele>
        <time>2012-11-17T07:18:32Z</time>
      </trkpt>
      <trkpt lat="47.31938" lon="4.92953">
        <ele>340</ele>
        <time>2012-11-17T07:18:35Z</time>
      </trkpt>
      <trkpt lat="47.31941" lon="4.92958">
        <ele>337</ele>
        <time>2012-11-17T07:18:39Z</time>
      </trkpt>
      <trkpt lat="47.31945" lon="4.92965">
        <ele>337</ele>
        <time>2012-11-17T07:18:42Z</time>
      </trkpt>
      <trkpt lat="47.31949" lon="4.92969">
        <ele>338</ele>
        <time>2012-11-17T07:18:45Z</time>
      </trkpt>
      <trkpt lat="47.31952" lon="4.92975">
        <ele>338</ele>
        <time>2012-11-17T07:18:48Z</time>
      </trkpt>
      <trkpt lat="47.31955" lon="4.92981">
        <ele>338</ele>
        <time>2012-11-17T07:18:50Z</time>
      </trkpt>
      <trkpt lat="47.31957" lon="4.92987">
        <ele>339</ele>
        <time>2012-11-17T07:18:53Z</time>
      </trkpt>
      <trkpt lat="47.31962" lon="4.92992">
        <ele>339</ele>
        <time>2012-11-17T07:18:57Z</time>
      </trkpt>
      <trkpt lat="47.31966" lon="4.92996">
        <ele>340</ele>
        <time>2012-11-17T07:19:00Z</time>
      </trkpt>
      <trkpt lat="47.3197" lon="4.93001">
        <ele>340</ele>
        <time>2012-11-17T07:19:05Z</time>
      </trkpt>
      <trkpt lat="47.31974" lon="4.93007">
        <ele>340</ele>
        <time>2012-11-17T07:19:09Z</time>
      </trkpt>
      <trkpt lat="47.31978" lon="4.93011">
        <ele>340</ele>
        <time>2012-11-17T07:19:12Z</time>
      </trkpt>
      <trkpt lat="47.31982" lon="4.93017">
        <ele>342</ele>
        <time>2012-11-17T07:19:15Z</time>
      </trkpt>
      <trkpt lat="47.31986" lon="4.93022">
        <ele>345</ele>
        <time>2012-11-17T07:19:18Z</time>
      </trkpt>
      <trkpt lat="47.3199" lon="4.93026">
        <ele>347</ele>
        <time>2012-11-17T07:19:22Z</time>
      </trkpt>
      <trkpt lat="47.31995" lon="4.93029">
        <ele>347</ele>
        <time>2012-11-17T07:19:29Z</time>
      </trkpt>
      <trkpt lat="47.32" lon="4.93034">
        <ele>346</ele>
        <time>2012-11-17T07:19:33Z</time>
      </trkpt>
      <trkpt lat="47.32004" lon="4.93039">
        <ele>346</ele>
        <time>2012-11-17T07:19:37Z</time>
      </trkpt>
      <trkpt lat="47.32004" lon="4.93039">
        <ele>346</ele>
        <time>2012-11-17T07:19:37Z</time>
      </trkpt>
      <trkpt lat="47.32004" lon="4.93039">
        <ele>346</ele>
        <time>2012-11-17T07:19:38Z</time>
      </trkpt>
      <trkpt lat="47.32009" lon="4.93044">
        <ele>345</ele>
        <time>2012-11-17T07:19:41Z</time>
      </trkpt>
      <trkpt lat="47.32013" lon="4.93048">
        <ele>345</ele>
        <time>2012-11-17T07:19:44Z</time>
      </trkpt>
      <trkpt lat="47.32016" lon="4.93053">
        <ele>342</ele>
        <time>2012-11-17T07:19:53Z</time>
      </trkpt>
      <trkpt lat="47.3202" lon="4.93058">
        <ele>341</ele>
        <time>2012-11-17T07:19:56Z</time>
      </trkpt>
      <trkpt lat="47.32024" lon="4.93062">
        <ele>341</ele>
        <time>2012-11-17T07:19:58Z</time>
      </trkpt>
      <trkpt lat="47.32028" lon="4.93068">
        <ele>338</ele>
        <time>2012-11-17T07:20:02Z</time>
      </trkpt>
      <trkpt lat="47.32032" lon="4.93071">
        <ele>338</ele>
        <time>2012-11-17T07:20:06Z</time>
      </trkpt>
      <trkpt lat="47.32037" lon="4.93075">
        <ele>337</ele>
        <time>2012-11-17T07:20:10Z</time>
      </trkpt>
      <trkpt lat="47.3204" lon="4.93081">
        <ele>338</ele>
        <time>2012-11-17T07:20:13Z</time>
      </trkpt>
      <trkpt lat="47.32043" lon="4.93088">
        <ele>338</ele>
        <time>2012-11-17T07:20:16Z</time>
      </trkpt>
      <trkpt lat="47.32046" lon="4.93093">
        <ele>340</ele>
        <time>2012-11-17T07:20:19Z</time>
      </trkpt>
      <trkpt lat="47.32049" lon="4.93099">
        <ele>340</ele>
        <time>2012-11-17T07:20:26Z</time>
      </trkpt>
      <trkpt lat="47.32053" lon="4.93101">
        <ele>339</ele>
        <time>2012-11-17T07:20:31Z</time>
      </trkpt>
      <trkpt lat="47.32057" lon="4.93105">
        <ele>339</ele>
        <time>2012-11-17T07:20:35Z</time>
      </trkpt>
      <trkpt lat="47.32062" lon="4.93108">
        <ele>340</ele>
        <time>2012-11-17T07:20:39Z</time>
      </trkpt>
      <trkpt lat="47.32065" lon="4.93113">
        <ele>337</ele>
        <time>2012-11-17T07:20:44Z</time>
      </trkpt>
      <trkpt lat="47.3207" lon="4.93116">
        <ele>339</ele>
        <time>2012-11-17T07:20:51Z</time>
      </trkpt>
      <trkpt lat="47.32074" lon="4.93122">
        <ele>341</ele>
        <time>2012-11-17T07:20:57Z</time>
      </trkpt>
      <trkpt lat="47.32078" lon="4.93128">
        <ele>340</ele>
        <time>2012-11-17T07:21:00Z</time>
      </trkpt>
      <trkpt lat="47.32082" lon="4.9313">
        <ele>342</ele>
        <time>2012-11-17T07:21:05Z</time>
      </trkpt>
      <trkpt lat="47.32087" lon="4.93134">
        <ele>343</ele>
        <time>2012-11-17T07:21:10Z</time>
      </trkpt>
      <trkpt lat="47.32088" lon="4.93141">
        <ele>344</ele>
        <time>2012-11-17T07:21:14Z</time>
      </trkpt>
      <trkpt lat="47.32091" lon="4.93146">
        <ele>342</ele>
        <time>2012-11-17T07:21:20Z</time>
      </trkpt>
      <trkpt lat="47.32093" lon="4.93153">
        <ele>341</ele>
        <time>2012-11-17T07:21:23Z</time>
      </trkpt>
      <trkpt lat="47.32097" lon="4.9316">
        <ele>341</ele>
        <time>2012-11-17T07:21:26Z</time>
      </trkpt>
      <trkpt lat="47.32102" lon="4.93163">
        <ele>344</ele>
        <time>2012-11-17T07:21:29Z</time>
      </trkpt>
      <trkpt lat="47.32108" lon="4.93167">
        <ele>344</ele>
        <time>2012-11-17T07:21:33Z</time>
      </trkpt>
      <trkpt lat="47.32111" lon="4.93172">
        <ele>343</ele>
        <time>2012-11-17T07:21:37Z</time>
      </trkpt>
      <trkpt lat="47.32115" lon="4.93177">
        <ele>343</ele>
        <time>2012-11-17T07:21:47Z</time>
      </trkpt>
      <trkpt lat="47.32117" lon="4.93183">
        <ele>344</ele>
        <time>2012-11-17T07:21:52Z</time>
      </trkpt>
      <trkpt lat="47.32119" lon="4.93189">
        <ele>344</ele>
        <time>2012-11-17T07:21:59Z</time>
      </trkpt>
      <trkpt lat="47.32123" lon="4.93193">
        <ele>346</ele>
        <time>2012-11-17T07:22:52Z</time>
      </trkpt>
      <trkpt lat="47.32127" lon="4.93198">
        <ele>343</ele>
        <time>2012-11-17T07:22:59Z</time>
      </trkpt>
      <trkpt lat="47.3213" lon="4.93204">
        <ele>340</ele>
        <time>2012-11-17T07:23:03Z</time>
      </trkpt>
      <trkpt lat="47.3213" lon="4.93204">
        <ele>340</ele>
        <time>2012-11-17T07:23:03Z</time>
      </trkpt>
      <trkpt lat="47.3213" lon="4.93204">
        <ele>340</ele>
        <time>2012-11-17T07:23:05Z</time>
      </trkpt>
      <trkpt lat="47.32133" lon="4.93208">
        <ele>338</ele>
        <time>2012-11-17T07:23:12Z</time>
      </trkpt>
      <trkpt lat="47.32136" lon="4.93214">
        <ele>336</ele>
        <time>2012-11-17T07:23:17Z</time>
      </trkpt>
      <trkpt lat="47.32138" lon="4.9322">
        <ele>333</ele>
        <time>2012-11-17T07:23:21Z</time>
      </trkpt>
      <trkpt lat="47.32142" lon="4.93227">
        <ele>332</ele>
        <time>2012-11-17T07:23:25Z</time>
      </trkpt>
      <trkpt lat="47.32142" lon="4.93237">
        <ele>332</ele>
        <time>2012-11-17T07:23:33Z</time>
      </trkpt>
      <trkpt lat="47.32143" lon="4.93244">
        <ele>332</ele>
        <time>2012-11-17T07:23:42Z</time>
      </trkpt>
      <trkpt lat="47.32146" lon="4.9325">
        <ele>333</ele>
        <time>2012-11-17T07:23:53Z</time>
      </trkpt>
      <trkpt lat="47.32149" lon="4.93255">
        <ele>332</ele>
        <time>2012-11-17T07:24:01Z</time>
      </trkpt>
      <trkpt lat="47.32149" lon="4.93266">
        <ele>332</ele>
        <time>2012-11-17T07:24:18Z</time>
      </trkpt>
      <trkpt lat="47.32146" lon="4.93273">
        <ele>331</ele>
        <time>2012-11-17T07:24:21Z</time>
      </trkpt>
      <trkpt lat="47.32148" lon="4.9328">
        <ele>332</ele>
        <time>2012-11-17T07:24:22Z</time>
      </trkpt>
      <trkpt lat="47.32144" lon="4.93285">
        <ele>331</ele>
        <time>2012-11-17T07:24:26Z</time>
      </trkpt>
      <trkpt lat="47.32145" lon="4.93294">
        <ele>332</ele>
        <time>2012-11-17T07:24:29Z</time>
      </trkpt>
      <trkpt lat="47.3214" lon="4.93298">
        <ele>333</ele>
        <time>2012-11-17T07:24:33Z</time>
      </trkpt>
      <trkpt lat="47.32136" lon="4.93306">
        <ele>334</ele>
        <time>2012-11-17T07:24:38Z</time>
      </trkpt>
      <trkpt lat="47.32133" lon="4.93313">
        <ele>332</ele>
        <time>2012-11-17T07:24:40Z</time>
      </trkpt>
      <trkpt lat="47.32132" lon="4.9332">
        <ele>333</ele>
        <time>2012-11-17T07:24:45Z</time>
      </trkpt>
      <trkpt lat="47.3213" lon="4.93328">
        <ele>334</ele>
        <time>2012-11-17T07:24:49Z</time>
      </trkpt>
      <trkpt lat="47.32128" lon="4.93337">
        <ele>333</ele>
        <time>2012-11-17T07:24:53Z</time>
      </trkpt>
      <trkpt lat="47.32125" lon="4.93342">
        <ele>333</ele>
        <time>2012-11-17T07:24:55Z</time>
      </trkpt>
      <trkpt lat="47.32121" lon="4.93346">
        <ele>333</ele>
        <time>2012-11-17T07:24:58Z</time>
      </trkpt>
      <trkpt lat="47.32118" lon="4.93352">
        <ele>332</ele>
        <time>2012-11-17T07:25:01Z</time>
      </trkpt>
      <trkpt lat="47.32115" lon="4.93355">
        <ele>333</ele>
        <time>2012-11-17T07:25:04Z</time>
      </trkpt>
      <trkpt lat="47.32112" lon="4.93362">
        <ele>333</ele>
        <time>2012-11-17T07:25:08Z</time>
      </trkpt>
      <trkpt lat="47.32109" lon="4.93368">
        <ele>334</ele>
        <time>2012-11-17T07:25:12Z</time>
      </trkpt>
      <trkpt lat="47.32106" lon="4.93376">
        <ele>334</ele>
        <time>2012-11-17T07:25:17Z</time>
      </trkpt>
      <trkpt lat="47.321" lon="4.93379">
        <ele>335</ele>
        <time>2012-11-17T07:25:20Z</time>
      </trkpt>
      <trkpt lat="47.32095" lon="4.93381">
        <ele>334</ele>
        <time>2012-11-17T07:25:22Z</time>
      </trkpt>
      <trkpt lat="47.32093" lon="4.93386">
        <ele>333</ele>
        <time>2012-11-17T07:25:25Z</time>
      </trkpt>
      <trkpt lat="47.32089" lon="4.93392">
        <ele>334</ele>
        <time>2012-11-17T07:25:29Z</time>
      </trkpt>
      <trkpt lat="47.32083" lon="4.93396">
        <ele>335</ele>
        <time>2012-11-17T07:25:32Z</time>
      </trkpt>
      <trkpt lat="47.3208" lon="4.93402">
        <ele>334</ele>
        <time>2012-11-17T07:25:35Z</time>
      </trkpt>
      <trkpt lat="47.32075" lon="4.93407">
        <ele>336</ele>
        <time>2012-11-17T07:25:38Z</time>
      </trkpt>
      <trkpt lat="47.32072" lon="4.93412">
        <ele>335</ele>
        <time>2012-11-17T07:25:40Z</time>
      </trkpt>
      <trkpt lat="47.32067" lon="4.93415">
        <ele>336</ele>
        <time>2012-11-17T07:25:43Z</time>
      </trkpt>
      <trkpt lat="47.32066" lon="4.93421">
        <ele>336</ele>
        <time>2012-11-17T07:25:46Z</time>
      </trkpt>
      <trkpt lat="47.32062" lon="4.93428">
        <ele>337</ele>
        <time>2012-11-17T07:25:50Z</time>
      </trkpt>
      <trkpt lat="47.32058" lon="4.93431">
        <ele>337</ele>
        <time>2012-11-17T07:25:53Z</time>
      </trkpt>
      <trkpt lat="47.32054" lon="4.93436">
        <ele>338</ele>
        <time>2012-11-17T07:25:56Z</time>
      </trkpt>
      <trkpt lat="47.32052" lon="4.93443">
        <ele>339</ele>
        <time>2012-11-17T07:26:00Z</time>
      </trkpt>
      <trkpt lat="47.32047" lon="4.93446">
        <ele>340</ele>
        <time>2012-11-17T07:26:02Z</time>
      </trkpt>
      <trkpt lat="47.32042" lon="4.93448">
        <ele>341</ele>
        <time>2012-11-17T07:26:04Z</time>
      </trkpt>
      <trkpt lat="47.32038" lon="4.93452">
        <ele>341</ele>
        <time>2012-11-17T07:26:10Z</time>
      </trkpt>
      <trkpt lat="47.32034" lon="4.93457">
        <ele>343</ele>
        <time>2012-11-17T07:26:13Z</time>
      </trkpt>
      <trkpt lat="47.32028" lon="4.9346">
        <ele>346</ele>
        <time>2012-11-17T07:26:16Z</time>
      </trkpt>
      <trkpt lat="47.32027" lon="4.93466">
        <ele>346</ele>
        <time>2012-11-17T07:26:19Z</time>
      </trkpt>
      <trkpt lat="47.32028" lon="4.93474">
        <ele>347</ele>
        <time>2012-11-17T07:26:21Z</time>
      </trkpt>
      <trkpt lat="47.32027" lon="4.93481">
        <ele>349</ele>
        <time>2012-11-17T07:26:24Z</time>
      </trkpt>
      <trkpt lat="47.32021" lon="4.93484">
        <ele>350</ele>
        <time>2012-11-17T07:26:27Z</time>
      </trkpt>
      <trkpt lat="47.32016" lon="4.93486">
        <ele>351</ele>
        <time>2012-11-17T07:26:30Z</time>
      </trkpt>
      <trkpt lat="47.32013" lon="4.93493">
        <ele>352</ele>
        <time>2012-11-17T07:26:33Z</time>
      </trkpt>
      <trkpt lat="47.32009" lon="4.93497">
        <ele>352</ele>
        <time>2012-11-17T07:26:36Z</time>
      </trkpt>
      <trkpt lat="47.32004" lon="4.935">
        <ele>352</ele>
        <time>2012-11-17T07:26:38Z</time>
      </trkpt>
      <trkpt lat="47.32004" lon="4.93507">
        <ele>352</ele>
        <time>2012-11-17T07:26:41Z</time>
      </trkpt>
      <trkpt lat="47.31998" lon="4.93511">
        <ele>352</ele>
        <time>2012-11-17T07:26:45Z</time>
      </trkpt>
      <trkpt lat="47.31998" lon="4.93518">
        <ele>350</ele>
        <time>2012-11-17T07:26:48Z</time>
      </trkpt>
      <trkpt lat="47.31996" lon="4.93527">
        <ele>353</ele>
        <time>2012-11-17T07:26:52Z</time>
      </trkpt>
      <trkpt lat="47.31991" lon="4.93531">
        <ele>353</ele>
        <time>2012-11-17T07:26:55Z</time>
      </trkpt>
      <trkpt lat="47.3199" lon="4.9354">
        <ele>352</ele>
        <time>2012-11-17T07:26:57Z</time>
      </trkpt>
      <trkpt lat="47.31988" lon="4.93546">
        <ele>352</ele>
        <time>2012-11-17T07:27:00Z</time>
      </trkpt>
      <trkpt lat="47.31984" lon="4.93548">
        <ele>350</ele>
        <time>2012-11-17T07:27:03Z</time>
      </trkpt>
      <trkpt lat="47.31979" lon="4.9355">
        <ele>352</ele>
        <time>2012-11-17T07:27:11Z</time>
      </trkpt>
      <trkpt lat="47.31976" lon="4.9356">
        <ele>353</ele>
        <time>2012-11-17T07:27:20Z</time>
      </trkpt>
      <trkpt lat="47.31971" lon="4.93561">
        <ele>354</ele>
        <time>2012-11-17T07:27:21Z</time>
      </trkpt>
      <trkpt lat="47.31969" lon="4.93567">
        <ele>356</ele>
        <time>2012-11-17T07:27:23Z</time>
      </trkpt>
      <trkpt lat="47.31968" lon="4.93576">
        <ele>357</ele>
        <time>2012-11-17T07:27:26Z</time>
      </trkpt>
      <trkpt lat="47.31962" lon="4.93581">
        <ele>357</ele>
        <time>2012-11-17T07:27:30Z</time>
      </trkpt>
      <trkpt lat="47.3196" lon="4.93587">
        <ele>355</ele>
        <time>2012-11-17T07:27:33Z</time>
      </trkpt>
      <trkpt lat="47.31957" lon="4.93594">
        <ele>357</ele>
        <time>2012-11-17T07:27:37Z</time>
      </trkpt>
      <trkpt lat="47.31957" lon="4.93602">
        <ele>359</ele>
        <time>2012-11-17T07:27:40Z</time>
      </trkpt>
      <trkpt lat="47.31955" lon="4.93607">
        <ele>360</ele>
        <time>2012-11-17T07:27:42Z</time>
      </trkpt>
      <trkpt lat="47.31952" lon="4.93613">
        <ele>360</ele>
        <time>2012-11-17T07:27:45Z</time>
      </trkpt>
      <trkpt lat="47.31952" lon="4.9362">
        <ele>363</ele>
        <time>2012-11-17T07:27:49Z</time>
      </trkpt>
      <trkpt lat="47.3195" lon="4.93627">
        <ele>362</ele>
        <time>2012-11-17T07:27:53Z</time>
      </trkpt>
      <trkpt lat="47.31948" lon="4.93635">
        <ele>364</ele>
        <time>2012-11-17T07:27:57Z</time>
      </trkpt>
      <trkpt lat="47.31943" lon="4.9364">
        <ele>364</ele>
        <time>2012-11-17T07:28:02Z</time>
      </trkpt>
      <trkpt lat="47.31941" lon="4.93648">
        <ele>366</ele>
        <time>2012-11-17T07:28:08Z</time>
      </trkpt>
      <trkpt lat="47.31936" lon="4.93652">
        <ele>371</ele>
        <time>2012-11-17T07:28:13Z</time>
      </trkpt>
      <trkpt lat="47.31931" lon="4.93656">
        <ele>372</ele>
        <time>2012-11-17T07:28:19Z</time>
      </trkpt>
      <trkpt lat="47.31928" lon="4.93664">
        <ele>375</ele>
        <time>2012-11-17T07:28:23Z</time>
      </trkpt>
      <trkpt lat="47.31927" lon="4.93672">
        <ele>378</ele>
        <time>2012-11-17T07:28:27Z</time>
      </trkpt>
      <trkpt lat="47.31929" lon="4.93679">
        <ele>378</ele>
        <time>2012-11-17T07:28:29Z</time>
      </trkpt>
      <trkpt lat="47.31926" lon="4.93686">
        <ele>378</ele>
        <time>2012-11-17T07:28:35Z</time>
      </trkpt>
      <trkpt lat="47.31925" lon="4.93694">
        <ele>377</ele>
        <time>2012-11-17T07:28:37Z</time>
      </trkpt>
      <trkpt lat="47.31924" lon="4.93701">
        <ele>377</ele>
        <time>2012-11-17T07:28:40Z</time>
      </trkpt>
      <trkpt lat="47.31922" lon="4.93708">
        <ele>377</ele>
        <time>2012-11-17T07:28:43Z</time>
      </trkpt>
      <trkpt lat="47.31924" lon="4.93714">
        <ele>377</ele>
        <time>2012-11-17T07:28:45Z</time>
      </trkpt>
      <trkpt lat="47.31924" lon="4.93723">
        <ele>376</ele>
        <time>2012-11-17T07:28:47Z</time>
      </trkpt>
      <trkpt lat="47.31926" lon="4.9373">
        <ele>379</ele>
        <time>2012-11-17T07:28:50Z</time>
      </trkpt>
      <trkpt lat="47.31925" lon="4.93738">
        <ele>379</ele>
        <time>2012-11-17T07:28:53Z</time>
      </trkpt>
      <trkpt lat="47.31925" lon="4.93738">
        <ele>379</ele>
        <time>2012-11-17T07:28:53Z</time>
      </trkpt>
      <trkpt lat="47.31925" lon="4.93738">
        <ele>379</ele>
        <time>2012-11-17T07:28:54Z</time>
      </trkpt>
      <trkpt lat="47.31922" lon="4.93744">
        <ele>381</ele>
        <time>2012-11-17T07:28:58Z</time>
      </trkpt>
      <trkpt lat="47.31917" lon="4.93747">
        <ele>384</ele>
        <time>2012-11-17T07:29:03Z</time>
      </trkpt>
      <trkpt lat="47.31912" lon="4.9375">
        <ele>384</ele>
        <time>2012-11-17T07:29:13Z</time>
      </trkpt>
      <trkpt lat="47.31912" lon="4.9375">
        <ele>384</ele>
        <time>2012-11-17T07:29:13Z</time>
      </trkpt>
      <trkpt lat="47.31912" lon="4.9375">
        <ele>384</ele>
        <time>2012-11-17T07:29:14Z</time>
      </trkpt>
      <trkpt lat="47.31913" lon="4.93756">
        <ele>386</ele>
        <time>2012-11-17T07:29:26Z</time>
      </trkpt>
      <trkpt lat="47.31912" lon="4.93765">
        <ele>386</ele>
        <time>2012-11-17T07:29:38Z</time>
      </trkpt>
      <trkpt lat="47.31914" lon="4.93771">
        <ele>386</ele>
        <time>2012-11-17T07:29:47Z</time>
      </trkpt>
      <trkpt lat="47.31917" lon="4.93776">
        <ele>386</ele>
        <time>2012-11-17T07:29:52Z</time>
      </trkpt>
      <trkpt lat="47.31919" lon="4.93783">
        <ele>385</ele>
        <time>2012-11-17T07:29:54Z</time>
      </trkpt>
      <trkpt lat="47.31921" lon="4.93789">
        <ele>388</ele>
        <time>2012-11-17T07:29:58Z</time>
      </trkpt>
      <trkpt lat="47.31924" lon="4.93796">
        <ele>388</ele>
        <time>2012-11-17T07:30:10Z</time>
      </trkpt>
      <trkpt lat="47.31927" lon="4.93802">
        <ele>387</ele>
        <time>2012-11-17T07:30:13Z</time>
      </trkpt>
      <trkpt lat="47.3193" lon="4.9381">
        <ele>388</ele>
        <time>2012-11-17T07:30:25Z</time>
      </trkpt>
      <trkpt lat="47.31933" lon="4.93816">
        <ele>388</ele>
        <time>2012-11-17T07:30:27Z</time>
      </trkpt>
      <trkpt lat="47.31939" lon="4.93827">
        <ele>388</ele>
        <time>2012-11-17T07:30:31Z</time>
      </trkpt>
      <trkpt lat="47.3194" lon="4.93834">
        <ele>389</ele>
        <time>2012-11-17T07:30:35Z</time>
      </trkpt>
      <trkpt lat="47.31943" lon="4.93844">
        <ele>390</ele>
        <time>2012-11-17T07:30:38Z</time>
      </trkpt>
      <trkpt lat="47.31942" lon="4.93852">
        <ele>390</ele>
        <time>2012-11-17T07:30:42Z</time>
      </trkpt>
      <trkpt lat="47.31943" lon="4.93858">
        <ele>393</ele>
        <time>2012-11-17T07:30:51Z</time>
      </trkpt>
      <trkpt lat="47.31946" lon="4.93864">
        <ele>393</ele>
        <time>2012-11-17T07:31:00Z</time>
      </trkpt>
      <trkpt lat="47.31948" lon="4.9387">
        <ele>392</ele>
        <time>2012-11-17T07:31:05Z</time>
      </trkpt>
      <trkpt lat="47.31952" lon="4.93876">
        <ele>393</ele>
        <time>2012-11-17T07:31:11Z</time>
      </trkpt>
      <trkpt lat="47.31955" lon="4.93882">
        <ele>394</ele>
        <time>2012-11-17T07:31:13Z</time>
      </trkpt>
      <trkpt lat="47.31958" lon="4.93889">
        <ele>394</ele>
        <time>2012-11-17T07:31:15Z</time>
      </trkpt>
      <trkpt lat="47.3196" lon="4.93897">
        <ele>394</ele>
        <time>2012-11-17T07:31:19Z</time>
      </trkpt>
      <trkpt lat="47.31961" lon="4.93904">
        <ele>394</ele>
        <time>2012-11-17T07:31:22Z</time>
      </trkpt>
      <trkpt lat="47.31961" lon="4.93912">
        <ele>395</ele>
        <time>2012-11-17T07:31:26Z</time>
      </trkpt>
      <trkpt lat="47.31963" lon="4.93918">
        <ele>396</ele>
        <time>2012-11-17T07:31:29Z</time>
      </trkpt>
      <trkpt lat="47.31963" lon="4.93926">
        <ele>400</ele>
        <time>2012-11-17T07:31:35Z</time>
      </trkpt>
      <trkpt lat="47.31961" lon="4.93933">
        <ele>402</ele>
        <time>2012-11-17T07:31:42Z</time>
      </trkpt>
      <trkpt lat="47.3196" lon="4.93941">
        <ele>404</ele>
        <time>2012-11-17T07:31:51Z</time>
      </trkpt>
      <trkpt lat="47.31962" lon="4.93947">
        <ele>404</ele>
        <time>2012-11-17T07:31:53Z</time>
      </trkpt>
      <trkpt lat="47.31964" lon="4.93954">
        <ele>405</ele>
        <time>2012-11-17T07:31:59Z</time>
      </trkpt>
      <trkpt lat="47.31966" lon="4.93962">
        <ele>406</ele>
        <time>2012-11-17T07:32:03Z</time>
      </trkpt>
      <trkpt lat="47.31965" lon="4.93968">
        <ele>407</ele>
        <time>2012-11-17T07:32:09Z</time>
      </trkpt>
      <trkpt lat="47.31966" lon="4.93978">
        <ele>408</ele>
        <time>2012-11-17T07:32:18Z</time>
      </trkpt>
      <trkpt lat="47.31968" lon="4.93984">
        <ele>409</ele>
        <time>2012-11-17T07:32:20Z</time>
      </trkpt>
      <trkpt lat="47.31969" lon="4.93991">
        <ele>410</ele>
        <time>2012-11-17T07:32:22Z</time>
      </trkpt>
      <trkpt lat="47.31967" lon="4.93997">
        <ele>414</ele>
        <time>2012-11-17T07:32:32Z</time>
      </trkpt>
      <trkpt lat="47.31969" lon="4.94005">
        <ele>416</ele>
        <time>2012-11-17T07:32:39Z</time>
      </trkpt>
      <trkpt lat="47.31969" lon="4.94012">
        <ele>414</ele>
        <time>2012-11-17T07:32:44Z</time>
      </trkpt>
      <trkpt lat="47.3197" lon="4.9402">
        <ele>415</ele>
        <time>2012-11-17T07:32:48Z</time>
      </trkpt>
      <trkpt lat="47.31968" lon="4.94026">
        <ele>418</ele>
        <time>2012-11-17T07:32:54Z</time>
      </trkpt>
      <trkpt lat="47.31968" lon="4.94033">
        <ele>420</ele>
        <time>2012-11-17T07:33:00Z</time>
      </trkpt>
      <trkpt lat="47.31967" lon="4.9404">
        <ele>423</ele>
        <time>2012-11-17T07:33:02Z</time>
      </trkpt>
      <trkpt lat="47.31968" lon="4.94047">
        <ele>426</ele>
        <time>2012-11-17T07:33:06Z</time>
      </trkpt>
      <trkpt lat="47.31966" lon="4.94054">
        <ele>426</ele>
        <time>2012-11-17T07:33:11Z</time>
      </trkpt>
      <trkpt lat="47.31966" lon="4.94054">
        <ele>426</ele>
        <time>2012-11-17T07:33:11Z</time>
      </trkpt>
      <trkpt lat="47.31966" lon="4.94054">
        <ele>426</ele>
        <time>2012-11-17T07:33:12Z</time>
      </trkpt>
      <trkpt lat="47.31964" lon="4.9406">
        <ele>427</ele>
        <time>2012-11-17T07:33:25Z</time>
      </trkpt>
      <trkpt lat="47.31964" lon="4.9406">
        <ele>427</ele>
        <time>2012-11-17T07:33:25Z</time>
      </trkpt>
      <trkpt lat="47.31964" lon="4.9406">
        <ele>427</ele>
        <time>2012-11-17T07:33:26Z</time>
      </trkpt>
      <trkpt lat="47.31962" lon="4.94066">
        <ele>429</ele>
        <time>2012-11-17T07:33:37Z</time>
      </trkpt>
      <trkpt lat="47.31961" lon="4.94074">
        <ele>431</ele>
        <time>2012-11-17T07:33:43Z</time>
      </trkpt>
      <trkpt lat="47.31961" lon="4.94081">
        <ele>431</ele>
        <time>2012-11-17T07:33:48Z</time>
      </trkpt>
      <trkpt lat="47.31959" lon="4.94086">
        <ele>432</ele>
        <time>2012-11-17T07:33:56Z</time>
      </trkpt>
      <trkpt lat="47.31957" lon="4.94093">
        <ele>431</ele>
        <time>2012-11-17T07:33:59Z</time>
      </trkpt>
      <trkpt lat="47.31959" lon="4.94104">
        <ele>431</ele>
        <time>2012-11-17T07:34:06Z</time>
      </trkpt>
      <trkpt lat="47.31956" lon="4.9411">
        <ele>435</ele>
        <time>2012-11-17T07:34:09Z</time>
      </trkpt>
      <trkpt lat="47.31957" lon="4.94118">
        <ele>440</ele>
        <time>2012-11-17T07:34:14Z</time>
      </trkpt>
      <trkpt lat="47.31956" lon="4.94124">
        <ele>444</ele>
        <time>2012-11-17T07:34:18Z</time>
      </trkpt>
      <trkpt lat="47.31955" lon="4.94131">
        <ele>446</ele>
        <time>2012-11-17T07:34:27Z</time>
      </trkpt>
      <trkpt lat="47.31955" lon="4.9414">
        <ele>449</ele>
        <time>2012-11-17T07:34:32Z</time>
      </trkpt>
      <trkpt lat="47.31954" lon="4.94147">
        <ele>452</ele>
        <time>2012-11-17T07:34:40Z</time>
      </trkpt>
      <trkpt lat="47.31953" lon="4.94154">
        <ele>453</ele>
        <time>2012-11-17T07:34:48Z</time>
      </trkpt>
      <trkpt lat="47.31955" lon="4.9416">
        <ele>455</ele>
        <time>2012-11-17T07:34:54Z</time>
      </trkpt>
      <trkpt lat="47.31953" lon="4.94168">
        <ele>456</ele>
        <time>2012-11-17T07:34:58Z</time>
      </trkpt>
      <trkpt lat="47.31954" lon="4.94174">
        <ele>460</ele>
        <time>2012-11-17T07:35:05Z</time>
      </trkpt>
      <trkpt lat="47.31955" lon="4.94182">
        <ele>462</ele>
        <time>2012-11-17T07:35:10Z</time>
      </trkpt>
      <trkpt lat="47.31954" lon="4.94189">
        <ele>465</ele>
        <time>2012-11-17T07:35:17Z</time>
      </trkpt>
      <trkpt lat="47.31954" lon="4.94198">
        <ele>464</ele>
        <time>2012-11-17T07:35:21Z</time>
      </trkpt>
      <trkpt lat="47.31953" lon="4.94204">
        <ele>467</ele>
        <time>2012-11-17T07:35:27Z</time>
      </trkpt>
      <trkpt lat="47.3195" lon="4.9421">
        <ele>466</ele>
        <time>2012-11-17T07:35:41Z</time>
      </trkpt>
      <trkpt lat="47.3195" lon="4.9421">
        <ele>466</ele>
        <time>2012-11-17T07:35:41Z</time>
      </trkpt>
      <trkpt lat="47.3195" lon="4.9421">
        <ele>466</ele>
        <time>2012-11-17T07:35:42Z</time>
      </trkpt>
      <trkpt lat="47.31948" lon="4.94216">
        <ele>464</ele>
        <time>2012-11-17T07:36:06Z</time>
      </trkpt>
      <trkpt lat="47.31946" lon="4.94223">
        <ele>462</ele>
        <time>2012-11-17T07:36:10Z</time>
      </trkpt>
      <trkpt lat="47.31946" lon="4.9423">
        <ele>464</ele>
        <time>2012-11-17T07:38:12Z</time>
      </trkpt>
      <trkpt lat="47.31945" lon="4.94237">
        <ele>465</ele>
        <time>2012-11-17T07:38:15Z</time>
      </trkpt>
      <trkpt lat="47.31941" lon="4.9424">
        <ele>465</ele>
        <time>2012-11-17T07:38:18Z</time>
      </trkpt>
      <trkpt lat="47.31936" lon="4.9424">
        <ele>463</ele>
        <time>2012-11-17T07:38:26Z</time>
      </trkpt>
      <trkpt lat="47.31936" lon="4.9424">
        <ele>463</ele>
        <time>2012-11-17T07:38:26Z</time>
      </trkpt>
      <trkpt lat="47.31936" lon="4.9424">
        <ele>463</ele>
        <time>2012-11-17T07:38:27Z</time>
      </trkpt>
      <trkpt lat="47.31932" lon="4.94245">
        <ele>459</ele>
        <time>2012-11-17T07:38:50Z</time>
      </trkpt>
      <trkpt lat="47.31932" lon="4.94245">
        <ele>459</ele>
        <time>2012-11-17T07:38:50Z</time>
      </trkpt>
      <trkpt lat="47.31932" lon="4.94245">
        <ele>459</ele>
        <time>2012-11-17T07:38:51Z</time>
      </trkpt>
      <trkpt lat="47.31927" lon="4.94244">
        <ele>455</ele>
        <time>2012-11-17T07:43:47Z</time>
      </trkpt>
      <trkpt lat="47.31927" lon="4.94244">
        <ele>455</ele>
        <time>2012-11-17T07:43:47Z</time>
      </trkpt>
      <trkpt lat="47.31927" lon="4.94244">
        <ele>455</ele>
        <time>2012-11-17T07:43:48Z</time>
      </trkpt>
      <trkpt lat="47.31922" lon="4.94246">
        <ele>455</ele>
        <time>2012-11-17T07:44:58Z</time>
      </trkpt>
      <trkpt lat="47.31917" lon="4.94246">
        <ele>455</ele>
        <time>2012-11-17T07:45:03Z</time>
      </trkpt>
      <trkpt lat="47.31919" lon="4.94255">
        <ele>460</ele>
        <time>2012-11-17T07:45:16Z</time>
      </trkpt>
      <trkpt lat="47.31922" lon="4.9426">
        <ele>460</ele>
        <time>2012-11-17T07:45:19Z</time>
      </trkpt>
      <trkpt lat="47.31925" lon="4.94266">
        <ele>462</ele>
        <time>2012-11-17T07:45:23Z</time>
      </trkpt>
      <trkpt lat="47.31927" lon="4.94273">
        <ele>463</ele>
        <time>2012-11-17T07:45:27Z</time>
      </trkpt>
      <trkpt lat="47.31927" lon="4.94281">
        <ele>463</ele>
        <time>2012-11-17T07:45:32Z</time>
      </trkpt>
      <trkpt lat="47.31924" lon="4.94286">
        <ele>462</ele>
        <time>2012-11-17T07:45:37Z</time>
      </trkpt>
      <trkpt lat="47.31919" lon="4.94288">
        <ele>462</ele>
        <time>2012-11-17T07:45:41Z</time>
      </trkpt>
      <trkpt lat="47.31917" lon="4.94295">
        <ele>462</ele>
        <time>2012-11-17T07:45:44Z</time>
      </trkpt>
      <trkpt lat="47.31914" lon="4.943">
        <ele>462</ele>
        <time>2012-11-17T07:45:47Z</time>
      </trkpt>
      <trkpt lat="47.31911" lon="4.94306">
        <ele>461</ele>
        <time>2012-11-17T07:45:51Z</time>
      </trkpt>
      <trkpt lat="47.31908" lon="4.94312">
        <ele>461</ele>
        <time>2012-11-17T07:45:54Z</time>
      </trkpt>
      <trkpt lat="47.31905" lon="4.94319">
        <ele>460</ele>
        <time>2012-11-17T07:45:58Z</time>
      </trkpt>
      <trkpt lat="47.31901" lon="4.94327">
        <ele>459</ele>
        <time>2012-11-17T07:46:03Z</time>
      </trkpt>
      <trkpt lat="47.31897" lon="4.94332">
        <ele>459</ele>
        <time>2012-11-17T07:46:07Z</time>
      </trkpt>
      <trkpt lat="47.31891" lon="4.94336">
        <ele>460</ele>
        <time>2012-11-17T07:46:10Z</time>
      </trkpt>
      <trkpt lat="47.31887" lon="4.94342">
        <ele>460</ele>
        <time>2012-11-17T07:46:14Z</time>
      </trkpt>
      <trkpt lat="47.31883" lon="4.94348">
        <ele>461</ele>
        <time>2012-11-17T07:46:18Z</time>
      </trkpt>
      <trkpt lat="47.3188" lon="4.94356">
        <ele>461</ele>
        <time>2012-11-17T07:46:22Z</time>
      </trkpt>
      <trkpt lat="47.31877" lon="4.94362">
        <ele>462</ele>
        <time>2012-11-17T07:46:26Z</time>
      </trkpt>
      <trkpt lat="47.31873" lon="4.94368">
        <ele>461</ele>
        <time>2012-11-17T07:46:29Z</time>
      </trkpt>
      <trkpt lat="47.31869" lon="4.94373">
        <ele>462</ele>
        <time>2012-11-17T07:46:33Z</time>
      </trkpt>
      <trkpt lat="47.31865" lon="4.94378">
        <ele>463</ele>
        <time>2012-11-17T07:46:36Z</time>
      </trkpt>
      <trkpt lat="47.31861" lon="4.94383">
        <ele>464</ele>
        <time>2012-11-17T07:46:39Z</time>
      </trkpt>
      <trkpt lat="47.31858" lon="4.94388">
        <ele>463</ele>
        <time>2012-11-17T07:46:43Z</time>
      </trkpt>
      <trkpt lat="47.31854" lon="4.94394">
        <ele>464</ele>
        <time>2012-11-17T07:46:47Z</time>
      </trkpt>
      <trkpt lat="47.31852" lon="4.94401">
        <ele>465</ele>
        <time>2012-11-17T07:46:52Z</time>
      </trkpt>
      <trkpt lat="47.3185" lon="4.94407">
        <ele>465</ele>
        <time>2012-11-17T07:46:55Z</time>
      </trkpt>
      <trkpt lat="47.31847" lon="4.94414">
        <ele>465</ele>
        <time>2012-11-17T07:46:59Z</time>
      </trkpt>
      <trkpt lat="47.31844" lon="4.94417">
        <ele>465</ele>
        <time>2012-11-17T07:47:02Z</time>
      </trkpt>
      <trkpt lat="47.3184" lon="4.94423">
        <ele>466</ele>
        <time>2012-11-17T07:47:06Z</time>
      </trkpt>
      <trkpt lat="47.31837" lon="4.94427">
        <ele>467</ele>
        <time>2012-11-17T07:47:09Z</time>
      </trkpt>
      <trkpt lat="47.31832" lon="4.94432">
        <ele>468</ele>
        <time>2012-11-17T07:47:13Z</time>
      </trkpt>
      <trkpt lat="47.31828" lon="4.94436">
        <ele>467</ele>
        <time>2012-11-17T07:47:16Z</time>
      </trkpt>
      <trkpt lat="47.31824" lon="4.94443">
        <ele>466</ele>
        <time>2012-11-17T07:47:19Z</time>
      </trkpt>
      <trkpt lat="47.31821" lon="4.94448">
        <ele>470</ele>
        <time>2012-11-17T07:47:25Z</time>
      </trkpt>
      <trkpt lat="47.31819" lon="4.94454">
        <ele>470</ele>
        <time>2012-11-17T07:47:29Z</time>
      </trkpt>
      <trkpt lat="47.31814" lon="4.9446">
        <ele>470</ele>
        <time>2012-11-17T07:47:33Z</time>
      </trkpt>
      <trkpt lat="47.31811" lon="4.94466">
        <ele>469</ele>
        <time>2012-11-17T07:47:36Z</time>
      </trkpt>
      <trkpt lat="47.31806" lon="4.94472">
        <ele>468</ele>
        <time>2012-11-17T07:47:40Z</time>
      </trkpt>
      <trkpt lat="47.31802" lon="4.94478">
        <ele>467</ele>
        <time>2012-11-17T07:47:44Z</time>
      </trkpt>
      <trkpt lat="47.31798" lon="4.94483">
        <ele>468</ele>
        <time>2012-11-17T07:47:48Z</time>
      </trkpt>
      <trkpt lat="47.31794" lon="4.94488">
        <ele>468</ele>
        <time>2012-11-17T07:47:52Z</time>
      </trkpt>
      <trkpt lat="47.3179" lon="4.94492">
        <ele>468</ele>
        <time>2012-11-17T07:47:55Z</time>
      </trkpt>
      <trkpt lat="47.31784" lon="4.94494">
        <ele>467</ele>
        <time>2012-11-17T07:47:58Z</time>
      </trkpt>
      <trkpt lat="47.31779" lon="4.94493">
        <ele>466</ele>
        <time>2012-11-17T07:48:00Z</time>
      </trkpt>
      <trkpt lat="47.31774" lon="4.94489">
        <ele>464</ele>
        <time>2012-11-17T07:48:04Z</time>
      </trkpt>
      <trkpt lat="47.3177" lon="4.94485">
        <ele>464</ele>
        <time>2012-11-17T07:48:07Z</time>
      </trkpt>
      <trkpt lat="47.31768" lon="4.94478">
        <ele>464</ele>
        <time>2012-11-17T07:48:09Z</time>
      </trkpt>
      <trkpt lat="47.31765" lon="4.94472">
        <ele>464</ele>
        <time>2012-11-17T07:48:13Z</time>
      </trkpt>
      <trkpt lat="47.31762" lon="4.94466">
        <ele>463</ele>
        <time>2012-11-17T07:48:16Z</time>
      </trkpt>
      <trkpt lat="47.31758" lon="4.94458">
        <ele>463</ele>
        <time>2012-11-17T07:48:20Z</time>
      </trkpt>
      <trkpt lat="47.31755" lon="4.94453">
        <ele>464</ele>
        <time>2012-11-17T07:48:23Z</time>
      </trkpt>
      <trkpt lat="47.31754" lon="4.94446">
        <ele>463</ele>
        <time>2012-11-17T07:48:25Z</time>
      </trkpt>
      <trkpt lat="47.31749" lon="4.94441">
        <ele>464</ele>
        <time>2012-11-17T07:48:30Z</time>
      </trkpt>
      <trkpt lat="47.31746" lon="4.94435">
        <ele>464</ele>
        <time>2012-11-17T07:48:33Z</time>
      </trkpt>
      <trkpt lat="47.31744" lon="4.94428">
        <ele>463</ele>
        <time>2012-11-17T07:48:36Z</time>
      </trkpt>
      <trkpt lat="47.31741" lon="4.9442">
        <ele>462</ele>
        <time>2012-11-17T07:48:40Z</time>
      </trkpt>
      <trkpt lat="47.31737" lon="4.94412">
        <ele>461</ele>
        <time>2012-11-17T07:48:44Z</time>
      </trkpt>
      <trkpt lat="47.31735" lon="4.94406">
        <ele>461</ele>
        <time>2012-11-17T07:48:47Z</time>
      </trkpt>
      <trkpt lat="47.31732" lon="4.944">
        <ele>462</ele>
        <time>2012-11-17T07:48:50Z</time>
      </trkpt>
      <trkpt lat="47.31728" lon="4.94396">
        <ele>461</ele>
        <time>2012-11-17T07:48:54Z</time>
      </trkpt>
      <trkpt lat="47.31725" lon="4.94388">
        <ele>462</ele>
        <time>2012-11-17T07:48:58Z</time>
      </trkpt>
      <trkpt lat="47.31721" lon="4.94384">
        <ele>463</ele>
        <time>2012-11-17T07:49:02Z</time>
      </trkpt>
      <trkpt lat="47.31716" lon="4.94379">
        <ele>462</ele>
        <time>2012-11-17T07:49:05Z</time>
      </trkpt>
      <trkpt lat="47.31714" lon="4.94372">
        <ele>461</ele>
        <time>2012-11-17T07:49:07Z</time>
      </trkpt>
      <trkpt lat="47.3171" lon="4.94369">
        <ele>462</ele>
        <time>2012-11-17T07:49:12Z</time>
      </trkpt>
      <trkpt lat="47.31706" lon="4.94362">
        <ele>462</ele>
        <time>2012-11-17T07:49:16Z</time>
      </trkpt>
      <trkpt lat="47.31703" lon="4.94357">
        <ele>462</ele>
        <time>2012-11-17T07:49:19Z</time>
      </trkpt>
      <trkpt lat="47.31701" lon="4.94352">
        <ele>462</ele>
        <time>2012-11-17T07:49:21Z</time>
      </trkpt>
      <trkpt lat="47.31699" lon="4.94344">
        <ele>462</ele>
        <time>2012-11-17T07:49:24Z</time>
      </trkpt>
      <trkpt lat="47.31695" lon="4.94339">
        <ele>463</ele>
        <time>2012-11-17T07:49:28Z</time>
      </trkpt>
      <trkpt lat="47.31691" lon="4.94333">
        <ele>463</ele>
        <time>2012-11-17T07:49:32Z</time>
      </trkpt>
      <trkpt lat="47.31688" lon="4.94327">
        <ele>462</ele>
        <time>2012-11-17T07:49:35Z</time>
      </trkpt>
      <trkpt lat="47.31686" lon="4.94319">
        <ele>463</ele>
        <time>2012-11-17T07:49:38Z</time>
      </trkpt>
      <trkpt lat="47.31684" lon="4.94313">
        <ele>462</ele>
        <time>2012-11-17T07:49:41Z</time>
      </trkpt>
      <trkpt lat="47.3168" lon="4.94306">
        <ele>464</ele>
        <time>2012-11-17T07:49:45Z</time>
      </trkpt>
      <trkpt lat="47.31676" lon="4.94302">
        <ele>465</ele>
        <time>2012-11-17T07:49:49Z</time>
      </trkpt>
      <trkpt lat="47.31672" lon="4.94296">
        <ele>465</ele>
        <time>2012-11-17T07:49:52Z</time>
      </trkpt>
      <trkpt lat="47.31669" lon="4.9429">
        <ele>467</ele>
        <time>2012-11-17T07:49:56Z</time>
      </trkpt>
      <trkpt lat="47.31666" lon="4.94283">
        <ele>466</ele>
        <time>2012-11-17T07:50:00Z</time>
      </trkpt>
      <trkpt lat="47.31663" lon="4.94277">
        <ele>465</ele>
        <time>2012-11-17T07:50:03Z</time>
      </trkpt>
      <trkpt lat="47.31662" lon="4.9427">
        <ele>465</ele>
        <time>2012-11-17T07:50:06Z</time>
      </trkpt>
      <trkpt lat="47.31659" lon="4.94263">
        <ele>465</ele>
        <time>2012-11-17T07:50:10Z</time>
      </trkpt>
      <trkpt lat="47.31656" lon="4.94256">
        <ele>464</ele>
        <time>2012-11-17T07:50:13Z</time>
      </trkpt>
      <trkpt lat="47.31653" lon="4.9425">
        <ele>464</ele>
        <time>2012-11-17T07:50:16Z</time>
      </trkpt>
      <trkpt lat="47.31648" lon="4.94246">
        <ele>463</ele>
        <time>2012-11-17T07:50:20Z</time>
      </trkpt>
      <trkpt lat="47.31645" lon="4.94242">
        <ele>464</ele>
        <time>2012-11-17T07:50:23Z</time>
      </trkpt>
      <trkpt lat="47.31641" lon="4.94233">
        <ele>465</ele>
        <time>2012-11-17T07:50:28Z</time>
      </trkpt>
      <trkpt lat="47.31638" lon="4.94226">
        <ele>465</ele>
        <time>2012-11-17T07:50:30Z</time>
      </trkpt>
      <trkpt lat="47.31634" lon="4.94221">
        <ele>465</ele>
        <time>2012-11-17T07:50:34Z</time>
      </trkpt>
      <trkpt lat="47.31631" lon="4.94215">
        <ele>465</ele>
        <time>2012-11-17T07:50:37Z</time>
      </trkpt>
      <trkpt lat="47.31626" lon="4.94211">
        <ele>467</ele>
        <time>2012-11-17T07:50:41Z</time>
      </trkpt>
      <trkpt lat="47.31621" lon="4.94206">
        <ele>466</ele>
        <time>2012-11-17T07:50:45Z</time>
      </trkpt>
      <trkpt lat="47.31619" lon="4.94199">
        <ele>465</ele>
        <time>2012-11-17T07:50:47Z</time>
      </trkpt>
      <trkpt lat="47.31614" lon="4.94195">
        <ele>464</ele>
        <time>2012-11-17T07:50:51Z</time>
      </trkpt>
      <trkpt lat="47.31611" lon="4.94188">
        <ele>465</ele>
        <time>2012-11-17T07:50:54Z</time>
      </trkpt>
      <trkpt lat="47.31607" lon="4.94182">
        <ele>466</ele>
        <time>2012-11-17T07:50:58Z</time>
      </trkpt>
      <trkpt lat="47.31604" lon="4.94176">
        <ele>465</ele>
        <time>2012-11-17T07:51:01Z</time>
      </trkpt>
      <trkpt lat="47.316" lon="4.9417">
        <ele>466</ele>
        <time>2012-11-17T07:51:05Z</time>
      </trkpt>
      <trkpt lat="47.31596" lon="4.94164">
        <ele>467</ele>
        <time>2012-11-17T07:51:10Z</time>
      </trkpt>
      <trkpt lat="47.31592" lon="4.94157">
        <ele>466</ele>
        <time>2012-11-17T07:51:14Z</time>
      </trkpt>
      <trkpt lat="47.31591" lon="4.9415">
        <ele>466</ele>
        <time>2012-11-17T07:51:17Z</time>
      </trkpt>
      <trkpt lat="47.31587" lon="4.94145">
        <ele>467</ele>
        <time>2012-11-17T07:51:21Z</time>
      </trkpt>
      <trkpt lat="47.31584" lon="4.94138">
        <ele>467</ele>
        <time>2012-11-17T07:51:24Z</time>
      </trkpt>
      <trkpt lat="47.31582" lon="4.94132">
        <ele>466</ele>
        <time>2012-11-17T07:51:28Z</time>
      </trkpt>
      <trkpt lat="47.3158" lon="4.94125">
        <ele>466</ele>
        <time>2012-11-17T07:51:31Z</time>
      </trkpt>
      <trkpt lat="47.31576" lon="4.94115">
        <ele>465</ele>
        <time>2012-11-17T07:51:36Z</time>
      </trkpt>
      <trkpt lat="47.31572" lon="4.9411">
        <ele>464</ele>
        <time>2012-11-17T07:51:41Z</time>
      </trkpt>
      <trkpt lat="47.31572" lon="4.94101">
        <ele>464</ele>
        <time>2012-11-17T07:51:44Z</time>
      </trkpt>
      <trkpt lat="47.31572" lon="4.94093">
        <ele>464</ele>
        <time>2012-11-17T07:51:46Z</time>
      </trkpt>
      <trkpt lat="47.31572" lon="4.94086">
        <ele>466</ele>
        <time>2012-11-17T07:51:52Z</time>
      </trkpt>
      <trkpt lat="47.31574" lon="4.9408">
        <ele>465</ele>
        <time>2012-11-17T07:51:55Z</time>
      </trkpt>
      <trkpt lat="47.31579" lon="4.94077">
        <ele>465</ele>
        <time>2012-11-17T07:51:59Z</time>
      </trkpt>
      <trkpt lat="47.31584" lon="4.94082">
        <ele>466</ele>
        <time>2012-11-17T07:52:03Z</time>
      </trkpt>
      <trkpt lat="47.31589" lon="4.94084">
        <ele>467</ele>
        <time>2012-11-17T07:52:07Z</time>
      </trkpt>
      <trkpt lat="47.31594" lon="4.9408">
        <ele>470</ele>
        <time>2012-11-17T07:52:15Z</time>
      </trkpt>
      <trkpt lat="47.31598" lon="4.94077">
        <ele>468</ele>
        <time>2012-11-17T07:52:18Z</time>
      </trkpt>
      <trkpt lat="47.31604" lon="4.94077">
        <ele>467</ele>
        <time>2012-11-17T07:52:21Z</time>
      </trkpt>
      <trkpt lat="47.31609" lon="4.94075">
        <ele>465</ele>
        <time>2012-11-17T07:52:26Z</time>
      </trkpt>
      <trkpt lat="47.31615" lon="4.94074">
        <ele>467</ele>
        <time>2012-11-17T07:52:31Z</time>
      </trkpt>
      <trkpt lat="47.31621" lon="4.94074">
        <ele>468</ele>
        <time>2012-11-17T07:52:34Z</time>
      </trkpt>
      <trkpt lat="47.31626" lon="4.94075">
        <ele>468</ele>
        <time>2012-11-17T07:52:37Z</time>
      </trkpt>
      <trkpt lat="47.3163" lon="4.94079">
        <ele>469</ele>
        <time>2012-11-17T07:52:40Z</time>
      </trkpt>
      <trkpt lat="47.31634" lon="4.94085">
        <ele>468</ele>
        <time>2012-11-17T07:52:45Z</time>
      </trkpt>
      <trkpt lat="47.31639" lon="4.94087">
        <ele>467</ele>
        <time>2012-11-17T07:52:48Z</time>
      </trkpt>
      <trkpt lat="47.31643" lon="4.9409">
        <ele>466</ele>
        <time>2012-11-17T07:52:51Z</time>
      </trkpt>
      <trkpt lat="47.31649" lon="4.94092">
        <ele>467</ele>
        <time>2012-11-17T07:52:54Z</time>
      </trkpt>
      <trkpt lat="47.31654" lon="4.94092">
        <ele>468</ele>
        <time>2012-11-17T07:52:58Z</time>
      </trkpt>
      <trkpt lat="47.31661" lon="4.94096">
        <ele>468</ele>
        <time>2012-11-17T07:53:02Z</time>
      </trkpt>
      <trkpt lat="47.31666" lon="4.94098">
        <ele>469</ele>
        <time>2012-11-17T07:53:05Z</time>
      </trkpt>
      <trkpt lat="47.31671" lon="4.941">
        <ele>470</ele>
        <time>2012-11-17T07:53:10Z</time>
      </trkpt>
      <trkpt lat="47.31676" lon="4.94099">
        <ele>471</ele>
        <time>2012-11-17T07:53:14Z</time>
      </trkpt>
      <trkpt lat="47.31682" lon="4.94102">
        <ele>470</ele>
        <time>2012-11-17T07:53:16Z</time>
      </trkpt>
      <trkpt lat="47.31685" lon="4.94106">
        <ele>470</ele>
        <time>2012-11-17T07:53:20Z</time>
      </trkpt>
      <trkpt lat="47.31691" lon="4.94106">
        <ele>469</ele>
        <time>2012-11-17T07:53:24Z</time>
      </trkpt>
      <trkpt lat="47.31696" lon="4.94107">
        <ele>470</ele>
        <time>2012-11-17T07:53:27Z</time>
      </trkpt>
      <trkpt lat="47.31703" lon="4.94107">
        <ele>471</ele>
        <time>2012-11-17T07:53:31Z</time>
      </trkpt>
      <trkpt lat="47.31707" lon="4.94112">
        <ele>470</ele>
        <time>2012-11-17T07:53:34Z</time>
      </trkpt>
      <trkpt lat="47.3171" lon="4.94118">
        <ele>469</ele>
        <time>2012-11-17T07:53:37Z</time>
      </trkpt>
      <trkpt lat="47.31714" lon="4.9412">
        <ele>465</ele>
        <time>2012-11-17T07:53:41Z</time>
      </trkpt>
      <trkpt lat="47.31719" lon="4.94121">
        <ele>465</ele>
        <time>2012-11-17T07:53:44Z</time>
      </trkpt>
      <trkpt lat="47.31725" lon="4.94121">
        <ele>469</ele>
        <time>2012-11-17T07:53:48Z</time>
      </trkpt>
      <trkpt lat="47.31729" lon="4.94125">
        <ele>469</ele>
        <time>2012-11-17T07:53:52Z</time>
      </trkpt>
      <trkpt lat="47.31733" lon="4.94129">
        <ele>466</ele>
        <time>2012-11-17T07:53:55Z</time>
      </trkpt>
      <trkpt lat="47.31738" lon="4.9413">
        <ele>465</ele>
        <time>2012-11-17T07:53:58Z</time>
      </trkpt>
      <trkpt lat="47.31743" lon="4.94133">
        <ele>465</ele>
        <time>2012-11-17T07:54:01Z</time>
      </trkpt>
      <trkpt lat="47.31748" lon="4.94133">
        <ele>465</ele>
        <time>2012-11-17T07:54:03Z</time>
      </trkpt>
      <trkpt lat="47.31751" lon="4.94138">
        <ele>464</ele>
        <time>2012-11-17T07:54:05Z</time>
      </trkpt>
      <trkpt lat="47.31756" lon="4.94139">
        <ele>463</ele>
        <time>2012-11-17T07:54:09Z</time>
      </trkpt>
      <trkpt lat="47.31761" lon="4.94143">
        <ele>464</ele>
        <time>2012-11-17T07:54:12Z</time>
      </trkpt>
      <trkpt lat="47.31765" lon="4.94149">
        <ele>463</ele>
        <time>2012-11-17T07:54:16Z</time>
      </trkpt>
      <trkpt lat="47.3177" lon="4.94153">
        <ele>462</ele>
        <time>2012-11-17T07:54:20Z</time>
      </trkpt>
      <trkpt lat="47.31775" lon="4.94156">
        <ele>463</ele>
        <time>2012-11-17T07:54:24Z</time>
      </trkpt>
      <trkpt lat="47.31779" lon="4.94159">
        <ele>462</ele>
        <time>2012-11-17T07:54:28Z</time>
      </trkpt>
      <trkpt lat="47.31785" lon="4.94161">
        <ele>464</ele>
        <time>2012-11-17T07:54:32Z</time>
      </trkpt>
      <trkpt lat="47.31791" lon="4.94163">
        <ele>464</ele>
        <time>2012-11-17T07:54:36Z</time>
      </trkpt>
      <trkpt lat="47.31795" lon="4.94165">
        <ele>464</ele>
        <time>2012-11-17T07:54:38Z</time>
      </trkpt>
      <trkpt lat="47.31799" lon="4.94168">
        <ele>464</ele>
        <time>2012-11-17T07:54:41Z</time>
      </trkpt>
      <trkpt lat="47.31804" lon="4.9417">
        <ele>464</ele>
        <time>2012-11-17T07:54:45Z</time>
      </trkpt>
      <trkpt lat="47.31808" lon="4.94174">
        <ele>463</ele>
        <time>2012-11-17T07:54:48Z</time>
      </trkpt>
      <trkpt lat="47.31813" lon="4.94177">
        <ele>462</ele>
        <time>2012-11-17T07:54:52Z</time>
      </trkpt>
      <trkpt lat="47.31817" lon="4.94182">
        <ele>460</ele>
        <time>2012-11-17T07:54:55Z</time>
      </trkpt>
      <trkpt lat="47.31823" lon="4.94183">
        <ele>459</ele>
        <time>2012-11-17T07:55:00Z</time>
      </trkpt>
      <trkpt lat="47.31829" lon="4.94186">
        <ele>461</ele>
        <time>2012-11-17T07:55:04Z</time>
      </trkpt>
      <trkpt lat="47.31834" lon="4.9419">
        <ele>461</ele>
        <time>2012-11-17T07:55:07Z</time>
      </trkpt>
      <trkpt lat="47.31839" lon="4.94194">
        <ele>459</ele>
        <time>2012-11-17T07:55:11Z</time>
      </trkpt>
      <trkpt lat="47.31844" lon="4.94196">
        <ele>462</ele>
        <time>2012-11-17T07:55:14Z</time>
      </trkpt>
      <trkpt lat="47.3185" lon="4.94196">
        <ele>461</ele>
        <time>2012-11-17T07:55:18Z</time>
      </trkpt>
      <trkpt lat="47.31854" lon="4.94201">
        <ele>460</ele>
        <time>2012-11-17T07:55:21Z</time>
      </trkpt>
      <trkpt lat="47.31859" lon="4.94206">
        <ele>458</ele>
        <time>2012-11-17T07:55:24Z</time>
      </trkpt>
      <trkpt lat="47.31864" lon="4.94209">
        <ele>457</ele>
        <time>2012-11-17T07:55:28Z</time>
      </trkpt>
      <trkpt lat="47.31869" lon="4.9421">
        <ele>456</ele>
        <time>2012-11-17T07:55:33Z</time>
      </trkpt>
      <trkpt lat="47.31876" lon="4.94212">
        <ele>456</ele>
        <time>2012-11-17T07:55:35Z</time>
      </trkpt>
      <trkpt lat="47.31882" lon="4.94214">
        <ele>457</ele>
        <time>2012-11-17T07:55:40Z</time>
      </trkpt>
      <trkpt lat="47.31887" lon="4.94218">
        <ele>457</ele>
        <time>2012-11-17T07:55:44Z</time>
      </trkpt>
      <trkpt lat="47.31891" lon="4.94221">
        <ele>457</ele>
        <time>2012-11-17T07:55:46Z</time>
      </trkpt>
      <trkpt lat="47.31895" lon="4.94226">
        <ele>457</ele>
        <time>2012-11-17T07:55:49Z</time>
      </trkpt>
      <trkpt lat="47.3189" lon="4.94231">
        <ele>451</ele>
        <time>2012-11-17T07:55:58Z</time>
      </trkpt>
      <trkpt lat="47.31886" lon="4.94226">
        <ele>451</ele>
        <time>2012-11-17T07:56:07Z</time>
      </trkpt>
      <trkpt lat="47.3188" lon="4.94224">
        <ele>452</ele>
        <time>2012-11-17T07:56:12Z</time>
      </trkpt>
      <trkpt lat="47.31876" lon="4.94222">
        <ele>454</ele>
        <time>2012-11-17T07:56:17Z</time>
      </trkpt>
      <trkpt lat="47.31871" lon="4.94216">
        <ele>453</ele>
        <time>2012-11-17T07:56:22Z</time>
      </trkpt>
      <trkpt lat="47.31867" lon="4.94212">
        <ele>452</ele>
        <time>2012-11-17T07:56:25Z</time>
      </trkpt>
      <trkpt lat="47.31862" lon="4.94208">
        <ele>453</ele>
        <time>2012-11-17T07:56:30Z</time>
      </trkpt>
      <trkpt lat="47.31859" lon="4.94202">
        <ele>452</ele>
        <time>2012-11-17T07:56:33Z</time>
      </trkpt>
      <trkpt lat="47.31856" lon="4.94196">
        <ele>452</ele>
        <time>2012-11-17T07:56:37Z</time>
      </trkpt>
      <trkpt lat="47.31852" lon="4.94191">
        <ele>449</ele>
        <time>2012-11-17T07:56:41Z</time>
      </trkpt>
      <trkpt lat="47.31848" lon="4.94185">
        <ele>448</ele>
        <time>2012-11-17T07:56:44Z</time>
      </trkpt>
      <trkpt lat="47.31844" lon="4.9418">
        <ele>449</ele>
        <time>2012-11-17T07:56:48Z</time>
      </trkpt>
      <trkpt lat="47.31838" lon="4.94176">
        <ele>450</ele>
        <time>2012-11-17T07:56:52Z</time>
      </trkpt>
      <trkpt lat="47.31835" lon="4.94171">
        <ele>451</ele>
        <time>2012-11-17T07:56:56Z</time>
      </trkpt>
      <trkpt lat="47.31831" lon="4.94166">
        <ele>454</ele>
        <time>2012-11-17T07:57:00Z</time>
      </trkpt>
      <trkpt lat="47.31827" lon="4.94161">
        <ele>455</ele>
        <time>2012-11-17T07:57:03Z</time>
      </trkpt>
      <trkpt lat="47.31823" lon="4.94158">
        <ele>454</ele>
        <time>2012-11-17T07:57:06Z</time>
      </trkpt>
      <trkpt lat="47.31819" lon="4.94153">
        <ele>455</ele>
        <time>2012-11-17T07:57:10Z</time>
      </trkpt>
      <trkpt lat="47.31815" lon="4.94147">
        <ele>455</ele>
        <time>2012-11-17T07:57:13Z</time>
      </trkpt>
      <trkpt lat="47.3181" lon="4.94144">
        <ele>455</ele>
        <time>2012-11-17T07:57:17Z</time>
      </trkpt>
      <trkpt lat="47.31806" lon="4.94142">
        <ele>455</ele>
        <time>2012-11-17T07:57:21Z</time>
      </trkpt>
      <trkpt lat="47.31802" lon="4.94137">
        <ele>455</ele>
        <time>2012-11-17T07:57:25Z</time>
      </trkpt>
      <trkpt lat="47.31796" lon="4.94135">
        <ele>455</ele>
        <time>2012-11-17T07:57:31Z</time>
      </trkpt>
      <trkpt lat="47.31791" lon="4.94129">
        <ele>456</ele>
        <time>2012-11-17T07:57:36Z</time>
      </trkpt>
      <trkpt lat="47.31788" lon="4.94123">
        <ele>456</ele>
        <time>2012-11-17T07:57:39Z</time>
      </trkpt>
      <trkpt lat="47.31784" lon="4.94119">
        <ele>457</ele>
        <time>2012-11-17T07:57:43Z</time>
      </trkpt>
      <trkpt lat="47.31779" lon="4.94117">
        <ele>457</ele>
        <time>2012-11-17T07:57:46Z</time>
      </trkpt>
      <trkpt lat="47.31774" lon="4.94113">
        <ele>457</ele>
        <time>2012-11-17T07:57:50Z</time>
      </trkpt>
      <trkpt lat="47.31771" lon="4.94108">
        <ele>456</ele>
        <time>2012-11-17T07:57:53Z</time>
      </trkpt>
      <trkpt lat="47.31766" lon="4.94106">
        <ele>457</ele>
        <time>2012-11-17T07:57:57Z</time>
      </trkpt>
      <trkpt lat="47.31761" lon="4.94102">
        <ele>457</ele>
        <time>2012-11-17T07:58:01Z</time>
      </trkpt>
      <trkpt lat="47.31756" lon="4.94098">
        <ele>457</ele>
        <time>2012-11-17T07:58:04Z</time>
      </trkpt>
      <trkpt lat="47.31751" lon="4.94095">
        <ele>458</ele>
        <time>2012-11-17T07:58:07Z</time>
      </trkpt>
      <trkpt lat="47.31747" lon="4.94091">
        <ele>459</ele>
        <time>2012-11-17T07:58:11Z</time>
      </trkpt>
      <trkpt lat="47.31741" lon="4.94092">
        <ele>459</ele>
        <time>2012-11-17T07:58:14Z</time>
      </trkpt>
      <trkpt lat="47.31737" lon="4.94086">
        <ele>457</ele>
        <time>2012-11-17T07:58:18Z</time>
      </trkpt>
      <trkpt lat="47.31732" lon="4.94085">
        <ele>457</ele>
        <time>2012-11-17T07:58:22Z</time>
      </trkpt>
      <trkpt lat="47.31728" lon="4.94078">
        <ele>458</ele>
        <time>2012-11-17T07:58:28Z</time>
      </trkpt>
      <trkpt lat="47.31724" lon="4.94075">
        <ele>458</ele>
        <time>2012-11-17T07:58:33Z</time>
      </trkpt>
      <trkpt lat="47.3172" lon="4.9407">
        <ele>462</ele>
        <time>2012-11-17T07:58:39Z</time>
      </trkpt>
      <trkpt lat="47.31718" lon="4.94065">
        <ele>464</ele>
        <time>2012-11-17T07:58:46Z</time>
      </trkpt>
      <trkpt lat="47.31713" lon="4.94062">
        <ele>466</ele>
        <time>2012-11-17T07:58:52Z</time>
      </trkpt>
      <trkpt lat="47.3171" lon="4.94057">
        <ele>465</ele>
        <time>2012-11-17T07:59:01Z</time>
      </trkpt>
      <trkpt lat="47.31704" lon="4.9405">
        <ele>463</ele>
        <time>2012-11-17T07:59:09Z</time>
      </trkpt>
      <trkpt lat="47.317" lon="4.94046">
        <ele>464</ele>
        <time>2012-11-17T07:59:16Z</time>
      </trkpt>
      <trkpt lat="47.31696" lon="4.94043">
        <ele>462</ele>
        <time>2012-11-17T07:59:22Z</time>
      </trkpt>
      <trkpt lat="47.31692" lon="4.94038">
        <ele>461</ele>
        <time>2012-11-17T07:59:28Z</time>
      </trkpt>
      <trkpt lat="47.31688" lon="4.94033">
        <ele>460</ele>
        <time>2012-11-17T07:59:31Z</time>
      </trkpt>
      <trkpt lat="47.31683" lon="4.94023">
        <ele>459</ele>
        <time>2012-11-17T08:00:00Z</time>
      </trkpt>
      <trkpt lat="47.31684" lon="4.94015">
        <ele>460</ele>
        <time>2012-11-17T08:00:02Z</time>
      </trkpt>
      <trkpt lat="47.31683" lon="4.94008">
        <ele>460</ele>
        <time>2012-11-17T08:00:04Z</time>
      </trkpt>
      <trkpt lat="47.31688" lon="4.94">
        <ele>460</ele>
        <time>2012-11-17T08:00:09Z</time>
      </trkpt>
      <trkpt lat="47.31689" lon="4.93993">
        <ele>461</ele>
        <time>2012-11-17T08:00:18Z</time>
      </trkpt>
      <trkpt lat="47.31688" lon="4.93986">
        <ele>461</ele>
        <time>2012-11-17T08:00:39Z</time>
      </trkpt>
      <trkpt lat="47.31686" lon="4.9398">
        <ele>462</ele>
        <time>2012-11-17T08:00:48Z</time>
      </trkpt>
      <trkpt lat="47.31686" lon="4.9398">
        <ele>462</ele>
        <time>2012-11-17T08:00:48Z</time>
      </trkpt>
      <trkpt lat="47.31686" lon="4.9398">
        <ele>462</ele>
        <time>2012-11-17T08:00:49Z</time>
      </trkpt>
      <trkpt lat="47.31681" lon="4.93976">
        <ele>462</ele>
        <time>2012-11-17T08:00:52Z</time>
      </trkpt>
      <trkpt lat="47.31674" lon="4.93975">
        <ele>460</ele>
        <time>2012-11-17T08:00:55Z</time>
      </trkpt>
      <trkpt lat="47.31674" lon="4.93975">
        <ele>460</ele>
        <time>2012-11-17T08:00:55Z</time>
      </trkpt>
      <trkpt lat="47.31674" lon="4.93975">
        <ele>460</ele>
        <time>2012-11-17T08:00:56Z</time>
      </trkpt>
      <trkpt lat="47.31668" lon="4.93972">
        <ele>463</ele>
        <time>2012-11-17T08:01:20Z</time>
      </trkpt>
      <trkpt lat="47.31662" lon="4.93973">
        <ele>464</ele>
        <time>2012-11-17T08:01:29Z</time>
      </trkpt>
      <trkpt lat="47.31656" lon="4.93974">
        <ele>466</ele>
        <time>2012-11-17T08:01:36Z</time>
      </trkpt>
      <trkpt lat="47.31651" lon="4.93973">
        <ele>468</ele>
        <time>2012-11-17T08:01:40Z</time>
      </trkpt>
      <trkpt lat="47.31646" lon="4.93975">
        <ele>470</ele>
        <time>2012-11-17T08:01:47Z</time>
      </trkpt>
      <trkpt lat="47.31641" lon="4.93975">
        <ele>472</ele>
        <time>2012-11-17T08:01:51Z</time>
      </trkpt>
      <trkpt lat="47.31641" lon="4.93975">
        <ele>472</ele>
        <time>2012-11-17T08:01:51Z</time>
      </trkpt>
      <trkpt lat="47.31641" lon="4.93975">
        <ele>473</ele>
        <time>2012-11-17T08:01:52Z</time>
      </trkpt>
      <trkpt lat="47.31636" lon="4.93974">
        <ele>474</ele>
        <time>2012-11-17T08:01:57Z</time>
      </trkpt>
      <trkpt lat="47.31631" lon="4.93973">
        <ele>474</ele>
        <time>2012-11-17T08:02:04Z</time>
      </trkpt>
      <trkpt lat="47.31627" lon="4.9397">
        <ele>474</ele>
        <time>2012-11-17T08:02:08Z</time>
      </trkpt>
      <trkpt lat="47.31622" lon="4.93971">
        <ele>475</ele>
        <time>2012-11-17T08:02:21Z</time>
      </trkpt>
      <trkpt lat="47.31617" lon="4.93972">
        <ele>473</ele>
        <time>2012-11-17T08:02:24Z</time>
      </trkpt>
      <trkpt lat="47.31611" lon="4.93972">
        <ele>471</ele>
        <time>2012-11-17T08:02:28Z</time>
      </trkpt>
      <trkpt lat="47.31606" lon="4.93974">
        <ele>469</ele>
        <time>2012-11-17T08:02:38Z</time>
      </trkpt>
      <trkpt lat="47.31601" lon="4.93974">
        <ele>466</ele>
        <time>2012-11-17T08:02:58Z</time>
      </trkpt>
      <trkpt lat="47.31597" lon="4.93968">
        <ele>466</ele>
        <time>2012-11-17T08:03:57Z</time>
      </trkpt>
      <trkpt lat="47.31594" lon="4.93963">
        <ele>466</ele>
        <time>2012-11-17T08:04:17Z</time>
      </trkpt>
      <trkpt lat="47.31591" lon="4.93968">
        <ele>468</ele>
        <time>2012-11-17T08:06:49Z</time>
      </trkpt>
      <trkpt lat="47.31595" lon="4.93963">
        <ele>466</ele>
        <time>2012-11-17T08:06:56Z</time>
      </trkpt>
      <trkpt lat="47.31596" lon="4.93953">
        <ele>467</ele>
        <time>2012-11-17T08:07:00Z</time>
      </trkpt>
      <trkpt lat="47.31598" lon="4.93947">
        <ele>465</ele>
        <time>2012-11-17T08:07:03Z</time>
      </trkpt>
      <trkpt lat="47.31602" lon="4.93943">
        <ele>464</ele>
        <time>2012-11-17T08:07:10Z</time>
      </trkpt>
      <trkpt lat="47.31603" lon="4.93936">
        <ele>468</ele>
        <time>2012-11-17T08:07:19Z</time>
      </trkpt>
      <trkpt lat="47.31604" lon="4.9393">
        <ele>466</ele>
        <time>2012-11-17T08:07:23Z</time>
      </trkpt>
      <trkpt lat="47.316" lon="4.93924">
        <ele>465</ele>
        <time>2012-11-17T08:07:30Z</time>
      </trkpt>
      <trkpt lat="47.31597" lon="4.93918">
        <ele>465</ele>
        <time>2012-11-17T08:07:35Z</time>
      </trkpt>
      <trkpt lat="47.31596" lon="4.9391">
        <ele>466</ele>
        <time>2012-11-17T08:07:39Z</time>
      </trkpt>
      <trkpt lat="47.31593" lon="4.93905">
        <ele>467</ele>
        <time>2012-11-17T08:07:42Z</time>
      </trkpt>
      <trkpt lat="47.31591" lon="4.93898">
        <ele>468</ele>
        <time>2012-11-17T08:07:46Z</time>
      </trkpt>
      <trkpt lat="47.31588" lon="4.93892">
        <ele>469</ele>
        <time>2012-11-17T08:07:50Z</time>
      </trkpt>
      <trkpt lat="47.31584" lon="4.93887">
        <ele>469</ele>
        <time>2012-11-17T08:07:53Z</time>
      </trkpt>
      <trkpt lat="47.31578" lon="4.93883">
        <ele>469</ele>
        <time>2012-11-17T08:07:56Z</time>
      </trkpt>
      <trkpt lat="47.31576" lon="4.93877">
        <ele>470</ele>
        <time>2012-11-17T08:08:00Z</time>
      </trkpt>
      <trkpt lat="47.31573" lon="4.93871">
        <ele>470</ele>
        <time>2012-11-17T08:08:03Z</time>
      </trkpt>
      <trkpt lat="47.31571" lon="4.93864">
        <ele>469</ele>
        <time>2012-11-17T08:08:06Z</time>
      </trkpt>
      <trkpt lat="47.3157" lon="4.93857">
        <ele>468</ele>
        <time>2012-11-17T08:08:09Z</time>
      </trkpt>
      <trkpt lat="47.31567" lon="4.93852">
        <ele>467</ele>
        <time>2012-11-17T08:08:12Z</time>
      </trkpt>
      <trkpt lat="47.31565" lon="4.93845">
        <ele>466</ele>
        <time>2012-11-17T08:08:15Z</time>
      </trkpt>
      <trkpt lat="47.31562" lon="4.93839">
        <ele>466</ele>
        <time>2012-11-17T08:08:19Z</time>
      </trkpt>
      <trkpt lat="47.31558" lon="4.93835">
        <ele>466</ele>
        <time>2012-11-17T08:08:22Z</time>
      </trkpt>
      <trkpt lat="47.31555" lon="4.9383">
        <ele>464</ele>
        <time>2012-11-17T08:08:26Z</time>
      </trkpt>
      <trkpt lat="47.31552" lon="4.93824">
        <ele>464</ele>
        <time>2012-11-17T08:08:28Z</time>
      </trkpt>
      <trkpt lat="47.31548" lon="4.93816">
        <ele>464</ele>
        <time>2012-11-17T08:08:31Z</time>
      </trkpt>
      <trkpt lat="47.31543" lon="4.9381">
        <ele>464</ele>
        <time>2012-11-17T08:08:35Z</time>
      </trkpt>
      <trkpt lat="47.3154" lon="4.93804">
        <ele>465</ele>
        <time>2012-11-17T08:08:39Z</time>
      </trkpt>
      <trkpt lat="47.31535" lon="4.938">
        <ele>465</ele>
        <time>2012-11-17T08:08:43Z</time>
      </trkpt>
      <trkpt lat="47.31532" lon="4.93795">
        <ele>465</ele>
        <time>2012-11-17T08:08:46Z</time>
      </trkpt>
      <trkpt lat="47.31528" lon="4.93789">
        <ele>464</ele>
        <time>2012-11-17T08:08:50Z</time>
      </trkpt>
      <trkpt lat="47.31524" lon="4.93783">
        <ele>464</ele>
        <time>2012-11-17T08:08:54Z</time>
      </trkpt>
      <trkpt lat="47.3152" lon="4.93778">
        <ele>464</ele>
        <time>2012-11-17T08:08:58Z</time>
      </trkpt>
      <trkpt lat="47.31516" lon="4.93773">
        <ele>464</ele>
        <time>2012-11-17T08:09:01Z</time>
      </trkpt>
      <trkpt lat="47.31513" lon="4.93768">
        <ele>463</ele>
        <time>2012-11-17T08:09:05Z</time>
      </trkpt>
      <trkpt lat="47.31508" lon="4.93765">
        <ele>463</ele>
        <time>2012-11-17T08:09:09Z</time>
      </trkpt>
      <trkpt lat="47.31504" lon="4.93753">
        <ele>463</ele>
        <time>2012-11-17T08:09:12Z</time>
      </trkpt>
      <trkpt lat="47.31504" lon="4.93753">
        <ele>463</ele>
        <time>2012-11-17T08:09:12Z</time>
      </trkpt>
      <trkpt lat="47.31504" lon="4.93753">
        <ele>462</ele>
        <time>2012-11-17T08:09:13Z</time>
      </trkpt>
      <trkpt lat="47.315" lon="4.93749">
        <ele>462</ele>
        <time>2012-11-17T08:09:16Z</time>
      </trkpt>
      <trkpt lat="47.31497" lon="4.93743">
        <ele>462</ele>
        <time>2012-11-17T08:09:19Z</time>
      </trkpt>
      <trkpt lat="47.31493" lon="4.93737">
        <ele>463</ele>
        <time>2012-11-17T08:09:23Z</time>
      </trkpt>
      <trkpt lat="47.3149" lon="4.93732">
        <ele>463</ele>
        <time>2012-11-17T08:09:26Z</time>
      </trkpt>
      <trkpt lat="47.31486" lon="4.93727">
        <ele>462</ele>
        <time>2012-11-17T08:09:29Z</time>
      </trkpt>
      <trkpt lat="47.31484" lon="4.93734">
        <ele>464</ele>
        <time>2012-11-17T08:09:33Z</time>
      </trkpt>
      <trkpt lat="47.31481" lon="4.93723">
        <ele>464</ele>
        <time>2012-11-17T08:09:36Z</time>
      </trkpt>
      <trkpt lat="47.31479" lon="4.93714">
        <ele>464</ele>
        <time>2012-11-17T08:09:38Z</time>
      </trkpt>
      <trkpt lat="47.31477" lon="4.93707">
        <ele>464</ele>
        <time>2012-11-17T08:09:42Z</time>
      </trkpt>
      <trkpt lat="47.31478" lon="4.93699">
        <ele>464</ele>
        <time>2012-11-17T08:09:46Z</time>
      </trkpt>
      <trkpt lat="47.31482" lon="4.93694">
        <ele>465</ele>
        <time>2012-11-17T08:09:50Z</time>
      </trkpt>
      <trkpt lat="47.31483" lon="4.93687">
        <ele>464</ele>
        <time>2012-11-17T08:09:53Z</time>
      </trkpt>
      <trkpt lat="47.31488" lon="4.93681">
        <ele>463</ele>
        <time>2012-11-17T08:09:58Z</time>
      </trkpt>
      <trkpt lat="47.31491" lon="4.93676">
        <ele>463</ele>
        <time>2012-11-17T08:10:01Z</time>
      </trkpt>
      <trkpt lat="47.31496" lon="4.93672">
        <ele>465</ele>
        <time>2012-11-17T08:10:05Z</time>
      </trkpt>
      <trkpt lat="47.31499" lon="4.93665">
        <ele>465</ele>
        <time>2012-11-17T08:10:09Z</time>
      </trkpt>
      <trkpt lat="47.31504" lon="4.9366">
        <ele>465</ele>
        <time>2012-11-17T08:10:13Z</time>
      </trkpt>
      <trkpt lat="47.31507" lon="4.93655">
        <ele>465</ele>
        <time>2012-11-17T08:10:17Z</time>
      </trkpt>
      <trkpt lat="47.31512" lon="4.9365">
        <ele>464</ele>
        <time>2012-11-17T08:10:21Z</time>
      </trkpt>
      <trkpt lat="47.31515" lon="4.93645">
        <ele>464</ele>
        <time>2012-11-17T08:10:25Z</time>
      </trkpt>
      <trkpt lat="47.31512" lon="4.9364">
        <ele>464</ele>
        <time>2012-11-17T08:10:31Z</time>
      </trkpt>
      <trkpt lat="47.31507" lon="4.93636">
        <ele>467</ele>
        <time>2012-11-17T08:10:36Z</time>
      </trkpt>
      <trkpt lat="47.31504" lon="4.93631">
        <ele>466</ele>
        <time>2012-11-17T08:10:40Z</time>
      </trkpt>
      <trkpt lat="47.315" lon="4.93627">
        <ele>468</ele>
        <time>2012-11-17T08:10:44Z</time>
      </trkpt>
      <trkpt lat="47.31496" lon="4.93623">
        <ele>469</ele>
        <time>2012-11-17T08:10:48Z</time>
      </trkpt>
      <trkpt lat="47.31492" lon="4.93618">
        <ele>472</ele>
        <time>2012-11-17T08:10:53Z</time>
      </trkpt>
      <trkpt lat="47.31488" lon="4.93615">
        <ele>472</ele>
        <time>2012-11-17T08:10:56Z</time>
      </trkpt>
      <trkpt lat="47.31483" lon="4.93611">
        <ele>474</ele>
        <time>2012-11-17T08:11:00Z</time>
      </trkpt>
      <trkpt lat="47.31478" lon="4.93606">
        <ele>474</ele>
        <time>2012-11-17T08:11:04Z</time>
      </trkpt>
      <trkpt lat="47.31473" lon="4.93603">
        <ele>473</ele>
        <time>2012-11-17T08:11:07Z</time>
      </trkpt>
      <trkpt lat="47.31467" lon="4.93599">
        <ele>473</ele>
        <time>2012-11-17T08:11:12Z</time>
      </trkpt>
      <trkpt lat="47.31464" lon="4.93594">
        <ele>475</ele>
        <time>2012-11-17T08:11:16Z</time>
      </trkpt>
      <trkpt lat="47.3146" lon="4.93591">
        <ele>474</ele>
        <time>2012-11-17T08:11:21Z</time>
      </trkpt>
      <trkpt lat="47.31455" lon="4.9359">
        <ele>475</ele>
        <time>2012-11-17T08:11:24Z</time>
      </trkpt>
      <trkpt lat="47.3145" lon="4.93588">
        <ele>475</ele>
        <time>2012-11-17T08:11:28Z</time>
      </trkpt>
      <trkpt lat="47.31446" lon="4.93584">
        <ele>475</ele>
        <time>2012-11-17T08:11:33Z</time>
      </trkpt>
      <trkpt lat="47.31441" lon="4.93578">
        <ele>475</ele>
        <time>2012-11-17T08:11:37Z</time>
      </trkpt>
      <trkpt lat="47.31436" lon="4.93574">
        <ele>475</ele>
        <time>2012-11-17T08:11:41Z</time>
      </trkpt>
      <trkpt lat="47.31432" lon="4.93571">
        <ele>472</ele>
        <time>2012-11-17T08:11:48Z</time>
      </trkpt>
      <trkpt lat="47.31432" lon="4.93571">
        <ele>472</ele>
        <time>2012-11-17T08:11:48Z</time>
      </trkpt>
      <trkpt lat="47.31432" lon="4.93571">
        <ele>473</ele>
        <time>2012-11-17T08:11:49Z</time>
      </trkpt>
      <trkpt lat="47.31427" lon="4.93568">
        <ele>472</ele>
        <time>2012-11-17T08:11:56Z</time>
      </trkpt>
      <trkpt lat="47.3142" lon="4.93566">
        <ele>472</ele>
        <time>2012-11-17T08:12:03Z</time>
      </trkpt>
      <trkpt lat="47.31413" lon="4.9356">
        <ele>471</ele>
        <time>2012-11-17T08:12:05Z</time>
      </trkpt>
      <trkpt lat="47.31409" lon="4.93559">
        <ele>471</ele>
        <time>2012-11-17T08:12:07Z</time>
      </trkpt>
      <trkpt lat="47.31409" lon="4.93559">
        <ele>471</ele>
        <time>2012-11-17T08:12:07Z</time>
      </trkpt>
      <trkpt lat="47.31409" lon="4.93559">
        <ele>471</ele>
        <time>2012-11-17T08:12:08Z</time>
      </trkpt>
      <trkpt lat="47.31403" lon="4.93558">
        <ele>472</ele>
        <time>2012-11-17T08:12:15Z</time>
      </trkpt>
      <trkpt lat="47.31398" lon="4.93558">
        <ele>473</ele>
        <time>2012-11-17T08:12:23Z</time>
      </trkpt>
      <trkpt lat="47.31391" lon="4.93557">
        <ele>474</ele>
        <time>2012-11-17T08:12:25Z</time>
      </trkpt>
      <trkpt lat="47.31386" lon="4.93558">
        <ele>475</ele>
        <time>2012-11-17T08:12:27Z</time>
      </trkpt>
      <trkpt lat="47.31379" lon="4.93557">
        <ele>473</ele>
        <time>2012-11-17T08:12:29Z</time>
      </trkpt>
      <trkpt lat="47.31374" lon="4.93555">
        <ele>474</ele>
        <time>2012-11-17T08:12:33Z</time>
      </trkpt>
      <trkpt lat="47.31374" lon="4.93555">
        <ele>474</ele>
        <time>2012-11-17T08:12:33Z</time>
      </trkpt>
      <trkpt lat="47.31374" lon="4.93555">
        <ele>474</ele>
        <time>2012-11-17T08:12:34Z</time>
      </trkpt>
      <trkpt lat="47.31369" lon="4.93554">
        <ele>476</ele>
        <time>2012-11-17T08:12:38Z</time>
      </trkpt>
      <trkpt lat="47.31363" lon="4.93554">
        <ele>475</ele>
        <time>2012-11-17T08:12:42Z</time>
      </trkpt>
      <trkpt lat="47.31357" lon="4.93555">
        <ele>473</ele>
        <time>2012-11-17T08:12:45Z</time>
      </trkpt>
      <trkpt lat="47.31363" lon="4.93556">
        <ele>471</ele>
        <time>2012-11-17T08:12:57Z</time>
      </trkpt>
      <trkpt lat="47.31366" lon="4.93561">
        <ele>471</ele>
        <time>2012-11-17T08:13:00Z</time>
      </trkpt>
      <trkpt lat="47.3137" lon="4.93566">
        <ele>472</ele>
        <time>2012-11-17T08:13:04Z</time>
      </trkpt>
      <trkpt lat="47.31375" lon="4.93568">
        <ele>474</ele>
        <time>2012-11-17T08:13:08Z</time>
      </trkpt>
      <trkpt lat="47.31381" lon="4.93571">
        <ele>476</ele>
        <time>2012-11-17T08:13:13Z</time>
      </trkpt>
      <trkpt lat="47.31384" lon="4.93577">
        <ele>475</ele>
        <time>2012-11-17T08:13:15Z</time>
      </trkpt>
      <trkpt lat="47.31389" lon="4.9358">
        <ele>475</ele>
        <time>2012-11-17T08:13:18Z</time>
      </trkpt>
      <trkpt lat="47.31394" lon="4.93585">
        <ele>474</ele>
        <time>2012-11-17T08:13:21Z</time>
      </trkpt>
      <trkpt lat="47.31399" lon="4.9359">
        <ele>473</ele>
        <time>2012-11-17T08:13:25Z</time>
      </trkpt>
      <trkpt lat="47.31404" lon="4.93596">
        <ele>474</ele>
        <time>2012-11-17T08:13:28Z</time>
      </trkpt>
      <trkpt lat="47.31407" lon="4.93603">
        <ele>473</ele>
        <time>2012-11-17T08:13:30Z</time>
      </trkpt>
      <trkpt lat="47.31409" lon="4.9361">
        <ele>472</ele>
        <time>2012-11-17T08:13:33Z</time>
      </trkpt>
      <trkpt lat="47.31412" lon="4.93616">
        <ele>471</ele>
        <time>2012-11-17T08:13:35Z</time>
      </trkpt>
      <trkpt lat="47.31417" lon="4.9362">
        <ele>470</ele>
        <time>2012-11-17T08:13:37Z</time>
      </trkpt>
      <trkpt lat="47.31423" lon="4.93624">
        <ele>469</ele>
        <time>2012-11-17T08:13:40Z</time>
      </trkpt>
      <trkpt lat="47.31428" lon="4.93628">
        <ele>466</ele>
        <time>2012-11-17T08:13:44Z</time>
      </trkpt>
      <trkpt lat="47.31433" lon="4.93633">
        <ele>463</ele>
        <time>2012-11-17T08:13:47Z</time>
      </trkpt>
      <trkpt lat="47.31437" lon="4.93635">
        <ele>463</ele>
        <time>2012-11-17T08:13:52Z</time>
      </trkpt>
      <trkpt lat="47.31441" lon="4.93631">
        <ele>462</ele>
        <time>2012-11-17T08:13:56Z</time>
      </trkpt>
      <trkpt lat="47.31446" lon="4.93627">
        <ele>462</ele>
        <time>2012-11-17T08:14:03Z</time>
      </trkpt>
      <trkpt lat="47.3145" lon="4.93624">
        <ele>464</ele>
        <time>2012-11-17T08:14:09Z</time>
      </trkpt>
      <trkpt lat="47.31453" lon="4.93619">
        <ele>465</ele>
        <time>2012-11-17T08:14:14Z</time>
      </trkpt>
      <trkpt lat="47.31455" lon="4.93612">
        <ele>465</ele>
        <time>2012-11-17T08:14:20Z</time>
      </trkpt>
      <trkpt lat="47.31459" lon="4.93605">
        <ele>464</ele>
        <time>2012-11-17T08:14:24Z</time>
      </trkpt>
      <trkpt lat="47.31461" lon="4.93599">
        <ele>465</ele>
        <time>2012-11-17T08:14:28Z</time>
      </trkpt>
      <trkpt lat="47.31466" lon="4.93594">
        <ele>466</ele>
        <time>2012-11-17T08:14:34Z</time>
      </trkpt>
      <trkpt lat="47.31469" lon="4.93587">
        <ele>466</ele>
        <time>2012-11-17T08:14:52Z</time>
      </trkpt>
      <trkpt lat="47.31473" lon="4.93582">
        <ele>466</ele>
        <time>2012-11-17T08:14:54Z</time>
      </trkpt>
      <trkpt lat="47.31477" lon="4.93577">
        <ele>466</ele>
        <time>2012-11-17T08:14:57Z</time>
      </trkpt>
      <trkpt lat="47.31477" lon="4.93577">
        <ele>466</ele>
        <time>2012-11-17T08:14:57Z</time>
      </trkpt>
      <trkpt lat="47.31477" lon="4.93577">
        <ele>465</ele>
        <time>2012-11-17T08:14:58Z</time>
      </trkpt>
      <trkpt lat="47.31481" lon="4.93572">
        <ele>461</ele>
        <time>2012-11-17T08:15:06Z</time>
      </trkpt>
      <trkpt lat="47.31485" lon="4.93567">
        <ele>460</ele>
        <time>2012-11-17T08:15:09Z</time>
      </trkpt>
      <trkpt lat="47.3149" lon="4.93561">
        <ele>459</ele>
        <time>2012-11-17T08:15:12Z</time>
      </trkpt>
      <trkpt lat="47.31494" lon="4.93558">
        <ele>459</ele>
        <time>2012-11-17T08:15:22Z</time>
      </trkpt>
      <trkpt lat="47.31499" lon="4.93553">
        <ele>458</ele>
        <time>2012-11-17T08:15:26Z</time>
      </trkpt>
      <trkpt lat="47.31502" lon="4.93549">
        <ele>457</ele>
        <time>2012-11-17T08:15:42Z</time>
      </trkpt>
      <trkpt lat="47.31506" lon="4.93544">
        <ele>457</ele>
        <time>2012-11-17T08:16:00Z</time>
      </trkpt>
      <trkpt lat="47.31509" lon="4.93536">
        <ele>457</ele>
        <time>2012-11-17T08:16:13Z</time>
      </trkpt>
      <trkpt lat="47.31512" lon="4.9353">
        <ele>457</ele>
        <time>2012-11-17T08:16:15Z</time>
      </trkpt>
      <trkpt lat="47.31515" lon="4.93525">
        <ele>456</ele>
        <time>2012-11-17T08:16:23Z</time>
      </trkpt>
      <trkpt lat="47.31515" lon="4.93525">
        <ele>456</ele>
        <time>2012-11-17T08:16:23Z</time>
      </trkpt>
      <trkpt lat="47.31515" lon="4.93525">
        <ele>456</ele>
        <time>2012-11-17T08:16:24Z</time>
      </trkpt>
      <trkpt lat="47.3152" lon="4.93518">
        <ele>454</ele>
        <time>2012-11-17T08:17:25Z</time>
      </trkpt>
      <trkpt lat="47.31516" lon="4.93512">
        <ele>454</ele>
        <time>2012-11-17T08:17:30Z</time>
      </trkpt>
      <trkpt lat="47.31515" lon="4.93506">
        <ele>452</ele>
        <time>2012-11-17T08:17:34Z</time>
      </trkpt>
      <trkpt lat="47.31516" lon="4.93499">
        <ele>448</ele>
        <time>2012-11-17T08:17:40Z</time>
      </trkpt>
      <trkpt lat="47.31516" lon="4.93491">
        <ele>447</ele>
        <time>2012-11-17T08:17:46Z</time>
      </trkpt>
      <trkpt lat="47.3151" lon="4.93487">
        <ele>448</ele>
        <time>2012-11-17T08:17:49Z</time>
      </trkpt>
      <trkpt lat="47.31512" lon="4.93479">
        <ele>448</ele>
        <time>2012-11-17T08:17:55Z</time>
      </trkpt>
      <trkpt lat="47.31512" lon="4.93479">
        <ele>448</ele>
        <time>2012-11-17T08:17:55Z</time>
      </trkpt>
      <trkpt lat="47.31512" lon="4.93479">
        <ele>448</ele>
        <time>2012-11-17T08:17:56Z</time>
      </trkpt>
      <trkpt lat="47.3151" lon="4.93472">
        <ele>448</ele>
        <time>2012-11-17T08:18:01Z</time>
      </trkpt>
      <trkpt lat="47.31507" lon="4.93466">
        <ele>448</ele>
        <time>2012-11-17T08:18:06Z</time>
      </trkpt>
      <trkpt lat="47.31505" lon="4.9346">
        <ele>448</ele>
        <time>2012-11-17T08:18:10Z</time>
      </trkpt>
      <trkpt lat="47.31501" lon="4.93456">
        <ele>447</ele>
        <time>2012-11-17T08:18:16Z</time>
      </trkpt>
      <trkpt lat="47.31498" lon="4.93449">
        <ele>445</ele>
        <time>2012-11-17T08:18:20Z</time>
      </trkpt>
      <trkpt lat="47.31495" lon="4.93444">
        <ele>444</ele>
        <time>2012-11-17T08:18:24Z</time>
      </trkpt>
      <trkpt lat="47.31495" lon="4.93436">
        <ele>443</ele>
        <time>2012-11-17T08:18:28Z</time>
      </trkpt>
      <trkpt lat="47.31493" lon="4.93429">
        <ele>442</ele>
        <time>2012-11-17T08:18:32Z</time>
      </trkpt>
      <trkpt lat="47.31492" lon="4.9342">
        <ele>439</ele>
        <time>2012-11-17T08:18:37Z</time>
      </trkpt>
      <trkpt lat="47.31493" lon="4.93413">
        <ele>439</ele>
        <time>2012-11-17T08:18:44Z</time>
      </trkpt>
      <trkpt lat="47.31489" lon="4.93406">
        <ele>437</ele>
        <time>2012-11-17T08:18:50Z</time>
      </trkpt>
      <trkpt lat="47.31485" lon="4.93403">
        <ele>436</ele>
        <time>2012-11-17T08:18:52Z</time>
      </trkpt>
      <trkpt lat="47.31485" lon="4.93403">
        <ele>436</ele>
        <time>2012-11-17T08:18:52Z</time>
      </trkpt>
      <trkpt lat="47.31485" lon="4.93403">
        <ele>436</ele>
        <time>2012-11-17T08:18:53Z</time>
      </trkpt>
      <trkpt lat="47.31484" lon="4.93396">
        <ele>435</ele>
        <time>2012-11-17T08:18:58Z</time>
      </trkpt>
      <trkpt lat="47.31478" lon="4.93392">
        <ele>433</ele>
        <time>2012-11-17T08:19:02Z</time>
      </trkpt>
      <trkpt lat="47.31474" lon="4.93388">
        <ele>432</ele>
        <time>2012-11-17T08:19:05Z</time>
      </trkpt>
      <trkpt lat="47.31471" lon="4.93381">
        <ele>431</ele>
        <time>2012-11-17T08:19:10Z</time>
      </trkpt>
      <trkpt lat="47.31474" lon="4.93375">
        <ele>429</ele>
        <time>2012-11-17T08:19:14Z</time>
      </trkpt>
      <trkpt lat="47.31474" lon="4.93368">
        <ele>427</ele>
        <time>2012-11-17T08:19:22Z</time>
      </trkpt>
      <trkpt lat="47.31472" lon="4.9336">
        <ele>424</ele>
        <time>2012-11-17T08:19:25Z</time>
      </trkpt>
      <trkpt lat="47.31471" lon="4.93352">
        <ele>422</ele>
        <time>2012-11-17T08:19:29Z</time>
      </trkpt>
      <trkpt lat="47.31466" lon="4.93352">
        <ele>420</ele>
        <time>2012-11-17T08:19:31Z</time>
      </trkpt>
      <trkpt lat="47.3147" lon="4.93347">
        <ele>421</ele>
        <time>2012-11-17T08:19:42Z</time>
      </trkpt>
      <trkpt lat="47.31465" lon="4.93344">
        <ele>420</ele>
        <time>2012-11-17T08:20:25Z</time>
      </trkpt>
      <trkpt lat="47.31459" lon="4.93339">
        <ele>418</ele>
        <time>2012-11-17T08:20:28Z</time>
      </trkpt>
      <trkpt lat="47.31454" lon="4.93334">
        <ele>417</ele>
        <time>2012-11-17T08:20:30Z</time>
      </trkpt>
      <trkpt lat="47.31454" lon="4.93327">
        <ele>414</ele>
        <time>2012-11-17T08:20:38Z</time>
      </trkpt>
      <trkpt lat="47.31454" lon="4.93327">
        <ele>414</ele>
        <time>2012-11-17T08:20:38Z</time>
      </trkpt>
      <trkpt lat="47.31454" lon="4.93327">
        <ele>414</ele>
        <time>2012-11-17T08:20:42Z</time>
      </trkpt>
      <trkpt lat="47.31453" lon="4.93319">
        <ele>414</ele>
        <time>2012-11-17T08:21:03Z</time>
      </trkpt>
      <trkpt lat="47.3145" lon="4.93312">
        <ele>415</ele>
        <time>2012-11-17T08:21:05Z</time>
      </trkpt>
      <trkpt lat="47.31453" lon="4.93298">
        <ele>418</ele>
        <time>2012-11-17T08:21:07Z</time>
      </trkpt>
      <trkpt lat="47.31454" lon="4.93291">
        <ele>417</ele>
        <time>2012-11-17T08:21:11Z</time>
      </trkpt>
      <trkpt lat="47.31448" lon="4.93287">
        <ele>417</ele>
        <time>2012-11-17T08:21:14Z</time>
      </trkpt>
      <trkpt lat="47.31442" lon="4.93287">
        <ele>417</ele>
        <time>2012-11-17T08:21:18Z</time>
      </trkpt>
      <trkpt lat="47.31439" lon="4.93281">
        <ele>417</ele>
        <time>2012-11-17T08:21:27Z</time>
      </trkpt>
      <trkpt lat="47.31439" lon="4.93281">
        <ele>417</ele>
        <time>2012-11-17T08:21:27Z</time>
      </trkpt>
      <trkpt lat="47.31439" lon="4.93281">
        <ele>417</ele>
        <time>2012-11-17T08:21:28Z</time>
      </trkpt>
      <trkpt lat="47.31444" lon="4.93275">
        <ele>417</ele>
        <time>2012-11-17T08:23:22Z</time>
      </trkpt>
      <trkpt lat="47.31447" lon="4.9327">
        <ele>417</ele>
        <time>2012-11-17T08:23:24Z</time>
      </trkpt>
      <trkpt lat="47.3145" lon="4.93265">
        <ele>414</ele>
        <time>2012-11-17T08:23:28Z</time>
      </trkpt>
      <trkpt lat="47.31451" lon="4.93258">
        <ele>413</ele>
        <time>2012-11-17T08:23:37Z</time>
      </trkpt>
      <trkpt lat="47.31451" lon="4.93258">
        <ele>413</ele>
        <time>2012-11-17T08:23:37Z</time>
      </trkpt>
      <trkpt lat="47.31451" lon="4.93258">
        <ele>413</ele>
        <time>2012-11-17T08:23:48Z</time>
      </trkpt>
      <trkpt lat="47.31447" lon="4.93253">
        <ele>411</ele>
        <time>2012-11-17T08:24:01Z</time>
      </trkpt>
      <trkpt lat="47.31447" lon="4.93253">
        <ele>411</ele>
        <time>2012-11-17T08:24:01Z</time>
      </trkpt>
      <trkpt lat="47.31447" lon="4.93253">
        <ele>412</ele>
        <time>2012-11-17T08:24:10Z</time>
      </trkpt>
      <trkpt lat="47.31442" lon="4.93252">
        <ele>413</ele>
        <time>2012-11-17T08:24:13Z</time>
      </trkpt>
      <trkpt lat="47.31437" lon="4.93248">
        <ele>416</ele>
        <time>2012-11-17T08:24:19Z</time>
      </trkpt>
      <trkpt lat="47.3143" lon="4.93249">
        <ele>420</ele>
        <time>2012-11-17T08:24:38Z</time>
      </trkpt>
      <trkpt lat="47.31425" lon="4.93251">
        <ele>424</ele>
        <time>2012-11-17T08:24:43Z</time>
      </trkpt>
      <trkpt lat="47.3142" lon="4.93252">
        <ele>425</ele>
        <time>2012-11-17T08:24:49Z</time>
      </trkpt>
      <trkpt lat="47.31415" lon="4.93252">
        <ele>427</ele>
        <time>2012-11-17T08:24:53Z</time>
      </trkpt>
      <trkpt lat="47.3141" lon="4.93254">
        <ele>429</ele>
        <time>2012-11-17T08:24:58Z</time>
      </trkpt>
      <trkpt lat="47.31405" lon="4.93257">
        <ele>430</ele>
        <time>2012-11-17T08:25:02Z</time>
      </trkpt>
      <trkpt lat="47.314" lon="4.93257">
        <ele>429</ele>
        <time>2012-11-17T08:25:10Z</time>
      </trkpt>
      <trkpt lat="47.31395" lon="4.9326">
        <ele>431</ele>
        <time>2012-11-17T08:25:16Z</time>
      </trkpt>
      <trkpt lat="47.31392" lon="4.93265">
        <ele>433</ele>
        <time>2012-11-17T08:25:21Z</time>
      </trkpt>
      <trkpt lat="47.31388" lon="4.9327">
        <ele>433</ele>
        <time>2012-11-17T08:25:35Z</time>
      </trkpt>
      <trkpt lat="47.31382" lon="4.93274">
        <ele>434</ele>
        <time>2012-11-17T08:25:42Z</time>
      </trkpt>
      <trkpt lat="47.31376" lon="4.93275">
        <ele>434</ele>
        <time>2012-11-17T08:25:44Z</time>
      </trkpt>
      <trkpt lat="47.3137" lon="4.93275">
        <ele>435</ele>
        <time>2012-11-17T08:25:49Z</time>
      </trkpt>
      <trkpt lat="47.31365" lon="4.93275">
        <ele>434</ele>
        <time>2012-11-17T08:25:58Z</time>
      </trkpt>
      <trkpt lat="47.3136" lon="4.93276">
        <ele>436</ele>
        <time>2012-11-17T08:26:04Z</time>
      </trkpt>
      <trkpt lat="47.31354" lon="4.93278">
        <ele>438</ele>
        <time>2012-11-17T08:26:10Z</time>
      </trkpt>
      <trkpt lat="47.31349" lon="4.93278">
        <ele>441</ele>
        <time>2012-11-17T08:26:16Z</time>
      </trkpt>
      <trkpt lat="47.31349" lon="4.93278">
        <ele>441</ele>
        <time>2012-11-17T08:26:16Z</time>
      </trkpt>
      <trkpt lat="47.31349" lon="4.93278">
        <ele>441</ele>
        <time>2012-11-17T08:26:22Z</time>
      </trkpt>
      <trkpt lat="47.31343" lon="4.9328">
        <ele>440</ele>
        <time>2012-11-17T08:26:24Z</time>
      </trkpt>
      <trkpt lat="47.31338" lon="4.93279">
        <ele>441</ele>
        <time>2012-11-17T08:26:27Z</time>
      </trkpt>
      <trkpt lat="47.31333" lon="4.93278">
        <ele>441</ele>
        <time>2012-11-17T08:26:32Z</time>
      </trkpt>
      <trkpt lat="47.31326" lon="4.93278">
        <ele>442</ele>
        <time>2012-11-17T08:26:37Z</time>
      </trkpt>
      <trkpt lat="47.31318" lon="4.93279">
        <ele>444</ele>
        <time>2012-11-17T08:26:40Z</time>
      </trkpt>
      <trkpt lat="47.31313" lon="4.93278">
        <ele>447</ele>
        <time>2012-11-17T08:26:43Z</time>
      </trkpt>
      <trkpt lat="47.31309" lon="4.9328">
        <ele>451</ele>
        <time>2012-11-17T08:26:47Z</time>
      </trkpt>
      <trkpt lat="47.31304" lon="4.93284">
        <ele>454</ele>
        <time>2012-11-17T08:26:52Z</time>
      </trkpt>
      <trkpt lat="47.31298" lon="4.93287">
        <ele>456</ele>
        <time>2012-11-17T08:26:56Z</time>
      </trkpt>
      <trkpt lat="47.31293" lon="4.93288">
        <ele>456</ele>
        <time>2012-11-17T08:26:59Z</time>
      </trkpt>
      <trkpt lat="47.31288" lon="4.93288">
        <ele>456</ele>
        <time>2012-11-17T08:27:02Z</time>
      </trkpt>
      <trkpt lat="47.31282" lon="4.93292">
        <ele>458</ele>
        <time>2012-11-17T08:27:07Z</time>
      </trkpt>
      <trkpt lat="47.31281" lon="4.93301">
        <ele>458</ele>
        <time>2012-11-17T08:27:11Z</time>
      </trkpt>
      <trkpt lat="47.31277" lon="4.93308">
        <ele>457</ele>
        <time>2012-11-17T08:27:17Z</time>
      </trkpt>
      <trkpt lat="47.31275" lon="4.93316">
        <ele>456</ele>
        <time>2012-11-17T08:27:20Z</time>
      </trkpt>
      <trkpt lat="47.31272" lon="4.93323">
        <ele>457</ele>
        <time>2012-11-17T08:27:26Z</time>
      </trkpt>
      <trkpt lat="47.31272" lon="4.93323">
        <ele>457</ele>
        <time>2012-11-17T08:27:26Z</time>
      </trkpt>
      <trkpt lat="47.31272" lon="4.93323">
        <ele>457</ele>
        <time>2012-11-17T08:27:28Z</time>
      </trkpt>
      <trkpt lat="47.31271" lon="4.93331">
        <ele>457</ele>
        <time>2012-11-17T08:27:31Z</time>
      </trkpt>
      <trkpt lat="47.31268" lon="4.93338">
        <ele>456</ele>
        <time>2012-11-17T08:27:37Z</time>
      </trkpt>
      <trkpt lat="47.31264" lon="4.93342">
        <ele>457</ele>
        <time>2012-11-17T08:27:49Z</time>
      </trkpt>
      <trkpt lat="47.31262" lon="4.93348">
        <ele>458</ele>
        <time>2012-11-17T08:28:08Z</time>
      </trkpt>
      <trkpt lat="47.31258" lon="4.93358">
        <ele>457</ele>
        <time>2012-11-17T08:28:10Z</time>
      </trkpt>
      <trkpt lat="47.31256" lon="4.93365">
        <ele>456</ele>
        <time>2012-11-17T08:28:12Z</time>
      </trkpt>
      <trkpt lat="47.31255" lon="4.93373">
        <ele>458</ele>
        <time>2012-11-17T08:28:20Z</time>
      </trkpt>
      <trkpt lat="47.31254" lon="4.93379">
        <ele>458</ele>
        <time>2012-11-17T08:28:24Z</time>
      </trkpt>
      <trkpt lat="47.31252" lon="4.93387">
        <ele>458</ele>
        <time>2012-11-17T08:28:29Z</time>
      </trkpt>
      <trkpt lat="47.3125" lon="4.93393">
        <ele>457</ele>
        <time>2012-11-17T08:28:37Z</time>
      </trkpt>
      <trkpt lat="47.31247" lon="4.93401">
        <ele>455</ele>
        <time>2012-11-17T08:28:41Z</time>
      </trkpt>
      <trkpt lat="47.31246" lon="4.93408">
        <ele>455</ele>
        <time>2012-11-17T08:28:46Z</time>
      </trkpt>
      <trkpt lat="47.31246" lon="4.93408">
        <ele>455</ele>
        <time>2012-11-17T08:28:46Z</time>
      </trkpt>
      <trkpt lat="47.31246" lon="4.93408">
        <ele>455</ele>
        <time>2012-11-17T08:28:47Z</time>
      </trkpt>
      <trkpt lat="47.31242" lon="4.93414">
        <ele>454</ele>
        <time>2012-11-17T08:28:57Z</time>
      </trkpt>
      <trkpt lat="47.3124" lon="4.93421">
        <ele>456</ele>
        <time>2012-11-17T08:29:01Z</time>
      </trkpt>
      <trkpt lat="47.31235" lon="4.93424">
        <ele>455</ele>
        <time>2012-11-17T08:29:05Z</time>
      </trkpt>
      <trkpt lat="47.31232" lon="4.93429">
        <ele>455</ele>
        <time>2012-11-17T08:29:12Z</time>
      </trkpt>
      <trkpt lat="47.31228" lon="4.93432">
        <ele>460</ele>
        <time>2012-11-17T08:30:51Z</time>
      </trkpt>
      <trkpt lat="47.31228" lon="4.93432">
        <ele>460</ele>
        <time>2012-11-17T08:30:51Z</time>
      </trkpt>
      <trkpt lat="47.31228" lon="4.93432">
        <ele>460</ele>
        <time>2012-11-17T08:30:52Z</time>
      </trkpt>
      <trkpt lat="47.31222" lon="4.93434">
        <ele>471</ele>
        <time>2012-11-17T08:32:36Z</time>
      </trkpt>
      <trkpt lat="47.31219" lon="4.93429">
        <ele>470</ele>
        <time>2012-11-17T08:32:43Z</time>
      </trkpt>
      <trkpt lat="47.31217" lon="4.93421">
        <ele>470</ele>
        <time>2012-11-17T08:32:48Z</time>
      </trkpt>
      <trkpt lat="47.31214" lon="4.93415">
        <ele>470</ele>
        <time>2012-11-17T08:32:52Z</time>
      </trkpt>
      <trkpt lat="47.31213" lon="4.93408">
        <ele>469</ele>
        <time>2012-11-17T08:32:56Z</time>
      </trkpt>
      <trkpt lat="47.31213" lon="4.93401">
        <ele>469</ele>
        <time>2012-11-17T08:33:00Z</time>
      </trkpt>
      <trkpt lat="47.31209" lon="4.93394">
        <ele>468</ele>
        <time>2012-11-17T08:33:04Z</time>
      </trkpt>
      <trkpt lat="47.31206" lon="4.93388">
        <ele>467</ele>
        <time>2012-11-17T08:33:08Z</time>
      </trkpt>
      <trkpt lat="47.31207" lon="4.9338">
        <ele>467</ele>
        <time>2012-11-17T08:33:11Z</time>
      </trkpt>
      <trkpt lat="47.31204" lon="4.93375">
        <ele>466</ele>
        <time>2012-11-17T08:33:15Z</time>
      </trkpt>
      <trkpt lat="47.31203" lon="4.93368">
        <ele>466</ele>
        <time>2012-11-17T08:33:18Z</time>
      </trkpt>
      <trkpt lat="47.312" lon="4.93361">
        <ele>465</ele>
        <time>2012-11-17T08:33:22Z</time>
      </trkpt>
      <trkpt lat="47.31202" lon="4.93355">
        <ele>466</ele>
        <time>2012-11-17T08:33:25Z</time>
      </trkpt>
      <trkpt lat="47.31198" lon="4.9335">
        <ele>467</ele>
        <time>2012-11-17T08:33:30Z</time>
      </trkpt>
      <trkpt lat="47.31193" lon="4.93346">
        <ele>469</ele>
        <time>2012-11-17T08:33:34Z</time>
      </trkpt>
      <trkpt lat="47.3119" lon="4.93338">
        <ele>468</ele>
        <time>2012-11-17T08:33:39Z</time>
      </trkpt>
      <trkpt lat="47.31189" lon="4.93331">
        <ele>468</ele>
        <time>2012-11-17T08:33:43Z</time>
      </trkpt>
      <trkpt lat="47.31186" lon="4.93324">
        <ele>470</ele>
        <time>2012-11-17T08:33:47Z</time>
      </trkpt>
      <trkpt lat="47.31183" lon="4.93317">
        <ele>470</ele>
        <time>2012-11-17T08:33:52Z</time>
      </trkpt>
      <trkpt lat="47.31182" lon="4.93309">
        <ele>471</ele>
        <time>2012-11-17T08:33:56Z</time>
      </trkpt>
      <trkpt lat="47.3118" lon="4.93302">
        <ele>471</ele>
        <time>2012-11-17T08:34:00Z</time>
      </trkpt>
      <trkpt lat="47.31177" lon="4.93295">
        <ele>470</ele>
        <time>2012-11-17T08:34:04Z</time>
      </trkpt>
      <trkpt lat="47.31177" lon="4.93286">
        <ele>468</ele>
        <time>2012-11-17T08:34:07Z</time>
      </trkpt>
      <trkpt lat="47.31177" lon="4.93278">
        <ele>467</ele>
        <time>2012-11-17T08:34:10Z</time>
      </trkpt>
      <trkpt lat="47.31174" lon="4.9327">
        <ele>466</ele>
        <time>2012-11-17T08:34:13Z</time>
      </trkpt>
      <trkpt lat="47.31173" lon="4.93263">
        <ele>467</ele>
        <time>2012-11-17T08:34:16Z</time>
      </trkpt>
      <trkpt lat="47.3117" lon="4.93255">
        <ele>466</ele>
        <time>2012-11-17T08:34:20Z</time>
      </trkpt>
      <trkpt lat="47.3117" lon="4.93248">
        <ele>466</ele>
        <time>2012-11-17T08:34:24Z</time>
      </trkpt>
      <trkpt lat="47.3117" lon="4.93239">
        <ele>466</ele>
        <time>2012-11-17T08:34:27Z</time>
      </trkpt>
      <trkpt lat="47.31167" lon="4.93233">
        <ele>465</ele>
        <time>2012-11-17T08:34:31Z</time>
      </trkpt>
      <trkpt lat="47.31164" lon="4.93226">
        <ele>464</ele>
        <time>2012-11-17T08:34:35Z</time>
      </trkpt>
      <trkpt lat="47.31161" lon="4.93219">
        <ele>466</ele>
        <time>2012-11-17T08:34:39Z</time>
      </trkpt>
      <trkpt lat="47.31158" lon="4.93212">
        <ele>466</ele>
        <time>2012-11-17T08:34:44Z</time>
      </trkpt>
      <trkpt lat="47.31156" lon="4.93204">
        <ele>464</ele>
        <time>2012-11-17T08:34:49Z</time>
      </trkpt>
      <trkpt lat="47.31154" lon="4.93196">
        <ele>464</ele>
        <time>2012-11-17T08:34:54Z</time>
      </trkpt>
      <trkpt lat="47.31153" lon="4.9319">
        <ele>463</ele>
        <time>2012-11-17T08:34:56Z</time>
      </trkpt>
      <trkpt lat="47.3115" lon="4.93182">
        <ele>464</ele>
        <time>2012-11-17T08:34:59Z</time>
      </trkpt>
      <trkpt lat="47.31148" lon="4.93174">
        <ele>463</ele>
        <time>2012-11-17T08:35:02Z</time>
      </trkpt>
      <trkpt lat="47.31145" lon="4.93169">
        <ele>461</ele>
        <time>2012-11-17T08:35:06Z</time>
      </trkpt>
      <trkpt lat="47.31145" lon="4.93161">
        <ele>461</ele>
        <time>2012-11-17T08:35:10Z</time>
      </trkpt>
      <trkpt lat="47.31142" lon="4.93154">
        <ele>461</ele>
        <time>2012-11-17T08:35:14Z</time>
      </trkpt>
      <trkpt lat="47.31141" lon="4.93147">
        <ele>460</ele>
        <time>2012-11-17T08:35:19Z</time>
      </trkpt>
      <trkpt lat="47.31142" lon="4.9314">
        <ele>460</ele>
        <time>2012-11-17T08:35:23Z</time>
      </trkpt>
      <trkpt lat="47.31144" lon="4.93133">
        <ele>458</ele>
        <time>2012-11-17T08:35:29Z</time>
      </trkpt>
      <trkpt lat="47.31147" lon="4.93127">
        <ele>459</ele>
        <time>2012-11-17T08:35:36Z</time>
      </trkpt>
      <trkpt lat="47.3115" lon="4.93121">
        <ele>459</ele>
        <time>2012-11-17T08:35:44Z</time>
      </trkpt>
      <trkpt lat="47.3115" lon="4.93121">
        <ele>459</ele>
        <time>2012-11-17T08:35:44Z</time>
      </trkpt>
      <trkpt lat="47.3115" lon="4.93121">
        <ele>458</ele>
        <time>2012-11-17T08:35:45Z</time>
      </trkpt>
      <trkpt lat="47.31153" lon="4.93116">
        <ele>454</ele>
        <time>2012-11-17T08:35:54Z</time>
      </trkpt>
      <trkpt lat="47.31154" lon="4.93108">
        <ele>453</ele>
        <time>2012-11-17T08:36:00Z</time>
      </trkpt>
      <trkpt lat="47.31156" lon="4.93101">
        <ele>455</ele>
        <time>2012-11-17T08:36:12Z</time>
      </trkpt>
      <trkpt lat="47.31158" lon="4.93095">
        <ele>455</ele>
        <time>2012-11-17T08:36:17Z</time>
      </trkpt>
      <trkpt lat="47.31159" lon="4.93088">
        <ele>455</ele>
        <time>2012-11-17T08:36:21Z</time>
      </trkpt>
      <trkpt lat="47.31161" lon="4.93081">
        <ele>456</ele>
        <time>2012-11-17T08:36:26Z</time>
      </trkpt>
      <trkpt lat="47.31165" lon="4.93075">
        <ele>455</ele>
        <time>2012-11-17T08:36:32Z</time>
      </trkpt>
      <trkpt lat="47.31168" lon="4.93069">
        <ele>454</ele>
        <time>2012-11-17T08:36:35Z</time>
      </trkpt>
      <trkpt lat="47.31171" lon="4.93064">
        <ele>452</ele>
        <time>2012-11-17T08:36:44Z</time>
      </trkpt>
      <trkpt lat="47.31174" lon="4.93058">
        <ele>450</ele>
        <time>2012-11-17T08:36:49Z</time>
      </trkpt>
      <trkpt lat="47.31176" lon="4.93053">
        <ele>450</ele>
        <time>2012-11-17T08:36:55Z</time>
      </trkpt>
      <trkpt lat="47.31179" lon="4.93047">
        <ele>451</ele>
        <time>2012-11-17T08:37:03Z</time>
      </trkpt>
      <trkpt lat="47.31181" lon="4.9304">
        <ele>452</ele>
        <time>2012-11-17T08:37:09Z</time>
      </trkpt>
      <trkpt lat="47.31184" lon="4.93034">
        <ele>451</ele>
        <time>2012-11-17T08:37:14Z</time>
      </trkpt>
      <trkpt lat="47.31187" lon="4.93028">
        <ele>452</ele>
        <time>2012-11-17T08:37:21Z</time>
      </trkpt>
      <trkpt lat="47.3119" lon="4.93022">
        <ele>450</ele>
        <time>2012-11-17T08:37:24Z</time>
      </trkpt>
      <trkpt lat="47.31192" lon="4.93016">
        <ele>450</ele>
        <time>2012-11-17T08:37:29Z</time>
      </trkpt>
      <trkpt lat="47.31196" lon="4.9301">
        <ele>450</ele>
        <time>2012-11-17T08:37:34Z</time>
      </trkpt>
      <trkpt lat="47.31199" lon="4.93004">
        <ele>450</ele>
        <time>2012-11-17T08:37:40Z</time>
      </trkpt>
      <trkpt lat="47.31199" lon="4.92997">
        <ele>450</ele>
        <time>2012-11-17T08:37:49Z</time>
      </trkpt>
      <trkpt lat="47.31202" lon="4.92989">
        <ele>448</ele>
        <time>2012-11-17T08:37:56Z</time>
      </trkpt>
      <trkpt lat="47.31201" lon="4.92981">
        <ele>448</ele>
        <time>2012-11-17T08:38:00Z</time>
      </trkpt>
      <trkpt lat="47.31204" lon="4.92976">
        <ele>447</ele>
        <time>2012-11-17T08:38:04Z</time>
      </trkpt>
      <trkpt lat="47.31208" lon="4.92969">
        <ele>445</ele>
        <time>2012-11-17T08:38:08Z</time>
      </trkpt>
      <trkpt lat="47.31211" lon="4.92963">
        <ele>443</ele>
        <time>2012-11-17T08:38:12Z</time>
      </trkpt>
      <trkpt lat="47.31213" lon="4.92957">
        <ele>440</ele>
        <time>2012-11-17T08:38:19Z</time>
      </trkpt>
      <trkpt lat="47.31214" lon="4.9295">
        <ele>439</ele>
        <time>2012-11-17T08:38:29Z</time>
      </trkpt>
      <trkpt lat="47.31218" lon="4.92944">
        <ele>438</ele>
        <time>2012-11-17T08:38:31Z</time>
      </trkpt>
      <trkpt lat="47.31218" lon="4.92934">
        <ele>437</ele>
        <time>2012-11-17T08:38:33Z</time>
      </trkpt>
      <trkpt lat="47.31221" lon="4.92927">
        <ele>437</ele>
        <time>2012-11-17T08:38:35Z</time>
      </trkpt>
      <trkpt lat="47.31221" lon="4.92919">
        <ele>436</ele>
        <time>2012-11-17T08:38:39Z</time>
      </trkpt>
      <trkpt lat="47.31225" lon="4.92913">
        <ele>436</ele>
        <time>2012-11-17T08:38:43Z</time>
      </trkpt>
      <trkpt lat="47.31225" lon="4.92904">
        <ele>435</ele>
        <time>2012-11-17T08:38:46Z</time>
      </trkpt>
      <trkpt lat="47.31228" lon="4.92897">
        <ele>433</ele>
        <time>2012-11-17T08:38:55Z</time>
      </trkpt>
      <trkpt lat="47.31229" lon="4.92889">
        <ele>432</ele>
        <time>2012-11-17T08:38:57Z</time>
      </trkpt>
      <trkpt lat="47.31232" lon="4.9288">
        <ele>431</ele>
        <time>2012-11-17T08:39:08Z</time>
      </trkpt>
      <trkpt lat="47.31236" lon="4.92874">
        <ele>431</ele>
        <time>2012-11-17T08:39:10Z</time>
      </trkpt>
      <trkpt lat="47.31239" lon="4.92868">
        <ele>431</ele>
        <time>2012-11-17T08:39:12Z</time>
      </trkpt>
      <trkpt lat="47.31247" lon="4.92863">
        <ele>429</ele>
        <time>2012-11-17T08:39:16Z</time>
      </trkpt>
      <trkpt lat="47.31251" lon="4.92858">
        <ele>428</ele>
        <time>2012-11-17T08:39:19Z</time>
      </trkpt>
      <trkpt lat="47.31255" lon="4.92853">
        <ele>428</ele>
        <time>2012-11-17T08:39:21Z</time>
      </trkpt>
      <trkpt lat="47.3126" lon="4.92848">
        <ele>428</ele>
        <time>2012-11-17T08:39:26Z</time>
      </trkpt>
      <trkpt lat="47.31262" lon="4.92842">
        <ele>428</ele>
        <time>2012-11-17T08:39:29Z</time>
      </trkpt>
      <trkpt lat="47.31265" lon="4.92835">
        <ele>427</ele>
        <time>2012-11-17T08:39:48Z</time>
      </trkpt>
      <trkpt lat="47.31269" lon="4.92831">
        <ele>426</ele>
        <time>2012-11-17T08:39:49Z</time>
      </trkpt>
      <trkpt lat="47.31272" lon="4.92824">
        <ele>426</ele>
        <time>2012-11-17T08:39:51Z</time>
      </trkpt>
      <trkpt lat="47.31276" lon="4.9282">
        <ele>425</ele>
        <time>2012-11-17T08:39:53Z</time>
      </trkpt>
      <trkpt lat="47.31279" lon="4.92814">
        <ele>425</ele>
        <time>2012-11-17T08:39:55Z</time>
      </trkpt>
      <trkpt lat="47.31283" lon="4.92808">
        <ele>424</ele>
        <time>2012-11-17T08:39:57Z</time>
      </trkpt>
      <trkpt lat="47.31287" lon="4.92804">
        <ele>425</ele>
        <time>2012-11-17T08:39:59Z</time>
      </trkpt>
      <trkpt lat="47.31289" lon="4.92796">
        <ele>425</ele>
        <time>2012-11-17T08:40:02Z</time>
      </trkpt>
      <trkpt lat="47.31293" lon="4.92793">
        <ele>425</ele>
        <time>2012-11-17T08:40:05Z</time>
      </trkpt>
      <trkpt lat="47.31298" lon="4.92787">
        <ele>424</ele>
        <time>2012-11-17T08:40:09Z</time>
      </trkpt>
      <trkpt lat="47.31305" lon="4.92783">
        <ele>424</ele>
        <time>2012-11-17T08:40:13Z</time>
      </trkpt>
      <trkpt lat="47.31309" lon="4.92779">
        <ele>423</ele>
        <time>2012-11-17T08:40:16Z</time>
      </trkpt>
      <trkpt lat="47.31313" lon="4.92775">
        <ele>423</ele>
        <time>2012-11-17T08:40:18Z</time>
      </trkpt>
      <trkpt lat="47.31317" lon="4.92772">
        <ele>423</ele>
        <time>2012-11-17T08:40:22Z</time>
      </trkpt>
      <trkpt lat="47.31322" lon="4.92769">
        <ele>424</ele>
        <time>2012-11-17T08:40:30Z</time>
      </trkpt>
      <trkpt lat="47.31327" lon="4.92768">
        <ele>424</ele>
        <time>2012-11-17T08:40:41Z</time>
      </trkpt>
      <trkpt lat="47.31332" lon="4.92766">
        <ele>423</ele>
        <time>2012-11-17T08:40:44Z</time>
      </trkpt>
      <trkpt lat="47.31338" lon="4.92762">
        <ele>422</ele>
        <time>2012-11-17T08:40:46Z</time>
      </trkpt>
      <trkpt lat="47.31343" lon="4.92759">
        <ele>422</ele>
        <time>2012-11-17T08:40:50Z</time>
      </trkpt>
      <trkpt lat="47.31348" lon="4.92758">
        <ele>420</ele>
        <time>2012-11-17T08:40:54Z</time>
      </trkpt>
      <trkpt lat="47.31355" lon="4.92755">
        <ele>419</ele>
        <time>2012-11-17T08:40:59Z</time>
      </trkpt>
      <trkpt lat="47.31359" lon="4.92752">
        <ele>418</ele>
        <time>2012-11-17T08:41:01Z</time>
      </trkpt>
      <trkpt lat="47.31362" lon="4.92747">
        <ele>420</ele>
        <time>2012-11-17T08:41:04Z</time>
      </trkpt>
      <trkpt lat="47.31368" lon="4.92744">
        <ele>419</ele>
        <time>2012-11-17T08:41:09Z</time>
      </trkpt>
      <trkpt lat="47.31368" lon="4.92744">
        <ele>419</ele>
        <time>2012-11-17T08:41:09Z</time>
      </trkpt>
      <trkpt lat="47.31368" lon="4.92744">
        <ele>419</ele>
        <time>2012-11-17T08:41:10Z</time>
      </trkpt>
      <trkpt lat="47.31373" lon="4.92742">
        <ele>421</ele>
        <time>2012-11-17T08:41:17Z</time>
      </trkpt>
      <trkpt lat="47.31379" lon="4.9274">
        <ele>418</ele>
        <time>2012-11-17T08:41:27Z</time>
      </trkpt>
      <trkpt lat="47.31383" lon="4.92738">
        <ele>418</ele>
        <time>2012-11-17T08:41:33Z</time>
      </trkpt>
      <trkpt lat="47.3139" lon="4.92735">
        <ele>417</ele>
        <time>2012-11-17T08:41:35Z</time>
      </trkpt>
      <trkpt lat="47.31399" lon="4.92733">
        <ele>416</ele>
        <time>2012-11-17T08:41:38Z</time>
      </trkpt>
      <trkpt lat="47.31404" lon="4.92732">
        <ele>415</ele>
        <time>2012-11-17T08:41:41Z</time>
      </trkpt>
      <trkpt lat="47.31411" lon="4.9273">
        <ele>414</ele>
        <time>2012-11-17T08:41:44Z</time>
      </trkpt>
      <trkpt lat="47.31416" lon="4.92729">
        <ele>413</ele>
        <time>2012-11-17T08:41:46Z</time>
      </trkpt>
      <trkpt lat="47.3142" lon="4.92727">
        <ele>410</ele>
        <time>2012-11-17T08:41:51Z</time>
      </trkpt>
      <trkpt lat="47.31426" lon="4.92727">
        <ele>410</ele>
        <time>2012-11-17T08:41:55Z</time>
      </trkpt>
      <trkpt lat="47.31432" lon="4.92724">
        <ele>410</ele>
        <time>2012-11-17T08:41:59Z</time>
      </trkpt>
      <trkpt lat="47.31435" lon="4.92721">
        <ele>409</ele>
        <time>2012-11-17T08:42:04Z</time>
      </trkpt>
      <trkpt lat="47.3144" lon="4.92721">
        <ele>408</ele>
        <time>2012-11-17T08:42:11Z</time>
      </trkpt>
      <trkpt lat="47.31447" lon="4.92719">
        <ele>406</ele>
        <time>2012-11-17T08:42:24Z</time>
      </trkpt>
      <trkpt lat="47.31455" lon="4.92716">
        <ele>405</ele>
        <time>2012-11-17T08:42:26Z</time>
      </trkpt>
      <trkpt lat="47.31459" lon="4.92714">
        <ele>404</ele>
        <time>2012-11-17T08:42:27Z</time>
      </trkpt>
      <trkpt lat="47.31467" lon="4.92709">
        <ele>400</ele>
        <time>2012-11-17T08:42:30Z</time>
      </trkpt>
      <trkpt lat="47.31472" lon="4.92705">
        <ele>399</ele>
        <time>2012-11-17T08:42:32Z</time>
      </trkpt>
      <trkpt lat="47.31478" lon="4.92704">
        <ele>398</ele>
        <time>2012-11-17T08:42:36Z</time>
      </trkpt>
      <trkpt lat="47.31483" lon="4.92702">
        <ele>398</ele>
        <time>2012-11-17T08:42:38Z</time>
      </trkpt>
      <trkpt lat="47.31488" lon="4.927">
        <ele>397</ele>
        <time>2012-11-17T08:42:41Z</time>
      </trkpt>
      <trkpt lat="47.31494" lon="4.92699">
        <ele>395</ele>
        <time>2012-11-17T08:42:45Z</time>
      </trkpt>
      <trkpt lat="47.31499" lon="4.92698">
        <ele>394</ele>
        <time>2012-11-17T08:42:48Z</time>
      </trkpt>
      <trkpt lat="47.31506" lon="4.92694">
        <ele>394</ele>
        <time>2012-11-17T08:42:50Z</time>
      </trkpt>
      <trkpt lat="47.31514" lon="4.92689">
        <ele>392</ele>
        <time>2012-11-17T08:42:53Z</time>
      </trkpt>
      <trkpt lat="47.31519" lon="4.9269">
        <ele>391</ele>
        <time>2012-11-17T08:42:58Z</time>
      </trkpt>
      <trkpt lat="47.31524" lon="4.92686">
        <ele>390</ele>
        <time>2012-11-17T08:43:01Z</time>
      </trkpt>
      <trkpt lat="47.3153" lon="4.92686">
        <ele>387</ele>
        <time>2012-11-17T08:43:07Z</time>
      </trkpt>
      <trkpt lat="47.31535" lon="4.92687">
        <ele>387</ele>
        <time>2012-11-17T08:43:09Z</time>
      </trkpt>
      <trkpt lat="47.3154" lon="4.92686">
        <ele>387</ele>
        <time>2012-11-17T08:43:21Z</time>
      </trkpt>
      <trkpt lat="47.31544" lon="4.92684">
        <ele>388</ele>
        <time>2012-11-17T08:43:29Z</time>
      </trkpt>
      <trkpt lat="47.3155" lon="4.92683">
        <ele>388</ele>
        <time>2012-11-17T08:43:33Z</time>
      </trkpt>
      <trkpt lat="47.31556" lon="4.92678">
        <ele>386</ele>
        <time>2012-11-17T08:43:37Z</time>
      </trkpt>
      <trkpt lat="47.3156" lon="4.92674">
        <ele>386</ele>
        <time>2012-11-17T08:43:46Z</time>
      </trkpt>
      <trkpt lat="47.3156" lon="4.92674">
        <ele>386</ele>
        <time>2012-11-17T08:43:46Z</time>
      </trkpt>
      <trkpt lat="47.3156" lon="4.92674">
        <ele>385</ele>
        <time>2012-11-17T08:43:49Z</time>
      </trkpt>
      <trkpt lat="47.31565" lon="4.92675">
        <ele>385</ele>
        <time>2012-11-17T08:44:18Z</time>
      </trkpt>
      <trkpt lat="47.31571" lon="4.92679">
        <ele>384</ele>
        <time>2012-11-17T08:44:19Z</time>
      </trkpt>
      <trkpt lat="47.31581" lon="4.92678">
        <ele>382</ele>
        <time>2012-11-17T08:44:21Z</time>
      </trkpt>
      <trkpt lat="47.31588" lon="4.9268">
        <ele>383</ele>
        <time>2012-11-17T08:44:23Z</time>
      </trkpt>
      <trkpt lat="47.31595" lon="4.92683">
        <ele>381</ele>
        <time>2012-11-17T08:44:25Z</time>
      </trkpt>
      <trkpt lat="47.31601" lon="4.92682">
        <ele>379</ele>
        <time>2012-11-17T08:44:27Z</time>
      </trkpt>
      <trkpt lat="47.31608" lon="4.92683">
        <ele>377</ele>
        <time>2012-11-17T08:44:29Z</time>
      </trkpt>
      <trkpt lat="47.31612" lon="4.92679">
        <ele>374</ele>
        <time>2012-11-17T08:44:31Z</time>
      </trkpt>
      <trkpt lat="47.31617" lon="4.92685">
        <ele>369</ele>
        <time>2012-11-17T08:44:36Z</time>
      </trkpt>
      <trkpt lat="47.31623" lon="4.92685">
        <ele>367</ele>
        <time>2012-11-17T08:44:40Z</time>
      </trkpt>
      <trkpt lat="47.31628" lon="4.92684">
        <ele>363</ele>
        <time>2012-11-17T08:44:48Z</time>
      </trkpt>
      <trkpt lat="47.31632" lon="4.92687">
        <ele>362</ele>
        <time>2012-11-17T08:44:54Z</time>
      </trkpt>
      <trkpt lat="47.31639" lon="4.92691">
        <ele>362</ele>
        <time>2012-11-17T08:45:05Z</time>
      </trkpt>
      <trkpt lat="47.31644" lon="4.92693">
        <ele>362</ele>
        <time>2012-11-17T08:45:06Z</time>
      </trkpt>
      <trkpt lat="47.3165" lon="4.92695">
        <ele>361</ele>
        <time>2012-11-17T08:45:09Z</time>
      </trkpt>
      <trkpt lat="47.31654" lon="4.92698">
        <ele>362</ele>
        <time>2012-11-17T08:45:13Z</time>
      </trkpt>
      <trkpt lat="47.31661" lon="4.92698">
        <ele>361</ele>
        <time>2012-11-17T08:45:16Z</time>
      </trkpt>
      <trkpt lat="47.31666" lon="4.92701">
        <ele>360</ele>
        <time>2012-11-17T08:45:18Z</time>
      </trkpt>
      <trkpt lat="47.31672" lon="4.92702">
        <ele>360</ele>
        <time>2012-11-17T08:45:23Z</time>
      </trkpt>
      <trkpt lat="47.31678" lon="4.92702">
        <ele>360</ele>
        <time>2012-11-17T08:45:25Z</time>
      </trkpt>
      <trkpt lat="47.31682" lon="4.92704">
        <ele>359</ele>
        <time>2012-11-17T08:45:29Z</time>
      </trkpt>
      <trkpt lat="47.31689" lon="4.92702">
        <ele>358</ele>
        <time>2012-11-17T08:45:33Z</time>
      </trkpt>
      <trkpt lat="47.31693" lon="4.92696">
        <ele>359</ele>
        <time>2012-11-17T08:45:36Z</time>
      </trkpt>
      <trkpt lat="47.31701" lon="4.92693">
        <ele>358</ele>
        <time>2012-11-17T08:45:39Z</time>
      </trkpt>
      <trkpt lat="47.31706" lon="4.92691">
        <ele>357</ele>
        <time>2012-11-17T08:45:42Z</time>
      </trkpt>
      <trkpt lat="47.31712" lon="4.92692">
        <ele>356</ele>
        <time>2012-11-17T08:45:45Z</time>
      </trkpt>
      <trkpt lat="47.31716" lon="4.9269">
        <ele>357</ele>
        <time>2012-11-17T08:45:52Z</time>
      </trkpt>
      <trkpt lat="47.31719" lon="4.92696">
        <ele>357</ele>
        <time>2012-11-17T08:45:55Z</time>
      </trkpt>
      <trkpt lat="47.31725" lon="4.92698">
        <ele>357</ele>
        <time>2012-11-17T08:45:58Z</time>
      </trkpt>
      <trkpt lat="47.31729" lon="4.92696">
        <ele>358</ele>
        <time>2012-11-17T08:46:03Z</time>
      </trkpt>
      <trkpt lat="47.31736" lon="4.92694">
        <ele>354</ele>
        <time>2012-11-17T08:46:09Z</time>
      </trkpt>
      <trkpt lat="47.31742" lon="4.92694">
        <ele>354</ele>
        <time>2012-11-17T08:46:12Z</time>
      </trkpt>
      <trkpt lat="47.31749" lon="4.92696">
        <ele>353</ele>
        <time>2012-11-17T08:46:18Z</time>
      </trkpt>
      <trkpt lat="47.31754" lon="4.92694">
        <ele>351</ele>
        <time>2012-11-17T08:46:21Z</time>
      </trkpt>
      <trkpt lat="47.31758" lon="4.92696">
        <ele>350</ele>
        <time>2012-11-17T08:46:25Z</time>
      </trkpt>
      <trkpt lat="47.31763" lon="4.92694">
        <ele>350</ele>
        <time>2012-11-17T08:46:28Z</time>
      </trkpt>
      <trkpt lat="47.31768" lon="4.92695">
        <ele>351</ele>
        <time>2012-11-17T08:46:33Z</time>
      </trkpt>
      <trkpt lat="47.31776" lon="4.92693">
        <ele>351</ele>
        <time>2012-11-17T08:46:37Z</time>
      </trkpt>
      <trkpt lat="47.31781" lon="4.92691">
        <ele>351</ele>
        <time>2012-11-17T08:46:39Z</time>
      </trkpt>
      <trkpt lat="47.31786" lon="4.92689">
        <ele>350</ele>
        <time>2012-11-17T08:46:42Z</time>
      </trkpt>
      <trkpt lat="47.31792" lon="4.92689">
        <ele>351</ele>
        <time>2012-11-17T08:46:48Z</time>
      </trkpt>
      <trkpt lat="47.31796" lon="4.92684">
        <ele>348</ele>
        <time>2012-11-17T08:46:55Z</time>
      </trkpt>
      <trkpt lat="47.31801" lon="4.92681">
        <ele>347</ele>
        <time>2012-11-17T08:46:59Z</time>
      </trkpt>
      <trkpt lat="47.31806" lon="4.92681">
        <ele>346</ele>
        <time>2012-11-17T08:47:01Z</time>
      </trkpt>
      <trkpt lat="47.3181" lon="4.92675">
        <ele>345</ele>
        <time>2012-11-17T08:47:04Z</time>
      </trkpt>
      <trkpt lat="47.31814" lon="4.92671">
        <ele>343</ele>
        <time>2012-11-17T08:47:08Z</time>
      </trkpt>
      <trkpt lat="47.31819" lon="4.92668">
        <ele>341</ele>
        <time>2012-11-17T08:47:12Z</time>
      </trkpt>
      <trkpt lat="47.31823" lon="4.92665">
        <ele>338</ele>
        <time>2012-11-17T08:47:19Z</time>
      </trkpt>
      <trkpt lat="47.31829" lon="4.92663">
        <ele>335</ele>
        <time>2012-11-17T08:47:27Z</time>
      </trkpt>
      <trkpt lat="47.31834" lon="4.92662">
        <ele>335</ele>
        <time>2012-11-17T08:47:30Z</time>
      </trkpt>
      <trkpt lat="47.3184" lon="4.92663">
        <ele>332</ele>
        <time>2012-11-17T08:47:38Z</time>
      </trkpt>
      <trkpt lat="47.31844" lon="4.92658">
        <ele>329</ele>
        <time>2012-11-17T08:47:41Z</time>
      </trkpt>
      <trkpt lat="47.31846" lon="4.92652">
        <ele>329</ele>
        <time>2012-11-17T08:47:43Z</time>
      </trkpt>
      <trkpt lat="47.31853" lon="4.92643">
        <ele>323</ele>
        <time>2012-11-17T08:49:51Z</time>
      </trkpt>
      <trkpt lat="47.3185" lon="4.92638">
        <ele>326</ele>
        <time>2012-11-17T08:50:29Z</time>
      </trkpt>
      <trkpt lat="47.31846" lon="4.92633">
        <ele>329</ele>
        <time>2012-11-17T08:50:35Z</time>
      </trkpt>
      <trkpt lat="47.31847" lon="4.9264">
        <ele>331</ele>
        <time>2012-11-17T08:54:47Z</time>
      </trkpt>
      <trkpt lat="47.31851" lon="4.92646">
        <ele>330</ele>
        <time>2012-11-17T08:54:51Z</time>
      </trkpt>
      <trkpt lat="47.31856" lon="4.92649">
        <ele>331</ele>
        <time>2012-11-17T08:55:06Z</time>
      </trkpt>
      <trkpt lat="47.31854" lon="4.92643">
        <ele>331</ele>
        <time>2012-11-17T08:57:30Z</time>
      </trkpt>
      <trkpt lat="47.31857" lon="4.92638">
        <ele>329</ele>
        <time>2012-11-17T08:57:37Z</time>
      </trkpt>
      <trkpt lat="47.31857" lon="4.92638">
        <ele>329</ele>
        <time>2012-11-17T08:57:37Z</time>
      </trkpt>
      <trkpt lat="47.31857" lon="4.92638">
        <ele>329</ele>
        <time>2012-11-17T08:57:38Z</time>
      </trkpt>
      <trkpt lat="47.31861" lon="4.92641">
        <ele>329</ele>
        <time>2012-11-17T08:57:42Z</time>
      </trkpt>
      <trkpt lat="47.31864" lon="4.92649">
        <ele>326</ele>
        <time>2012-11-17T08:57:45Z</time>
      </trkpt>
      <trkpt lat="47.31868" lon="4.92654">
        <ele>323</ele>
        <time>2012-11-17T08:57:47Z</time>
      </trkpt>
      <trkpt lat="47.31871" lon="4.92663">
        <ele>319</ele>
        <time>2012-11-17T08:57:52Z</time>
      </trkpt>
      <trkpt lat="47.31875" lon="4.92668">
        <ele>317</ele>
        <time>2012-11-17T08:57:59Z</time>
      </trkpt>
      <trkpt lat="47.31875" lon="4.92668">
        <ele>317</ele>
        <time>2012-11-17T08:57:59Z</time>
      </trkpt>
      <trkpt lat="47.31875" lon="4.92668">
        <ele>317</ele>
        <time>2012-11-17T08:58:00Z</time>
      </trkpt>
    </trkseg>
  </trk>
</gpx>